M I D A S
Marine Information and Data Acquisition System
Tripno 1261 of the Zeeleeuw from 2007-04-11 06:25:57 to 2007-04-11 16:50:56
Back to CruiseResearch ActivitiesStationsMapUnderway DataData graphs

EquipmentUnitsComment
TimeDGPSUTC
LatitudeDGPSDM.mWGS84
LongitudeDGPSDM.mWGS84
TemperatureSBE03/SBE38deg celciusITS90
ConductivitySBE21S/mITS90
SalinitySBE21 Practical Salinity Units
ChlorophylAChelsea fluorimeterg/lCalibrated in Aceton
Missing or incorrect values are displayed as -999
Sea surface data collected by the RV Zeeleeuw from 2007-04-11 06:25:11 to 2007-04-11 17:00:22
                                                                                    Next 1000 lines
Time Latitude Longitude Temperature Conductivity Salinity ChlorophylA
2007-04-11 06:25:21 51°13.602 2°56.099 13.0291 2.892555 22.338358 -2.871232
2007-04-11 06:25:26 51°13.602 2°56.099 12.9982 2.887178 22.329176 -2.871232
2007-04-11 06:25:31 51°13.601 2°56.099 12.9312 2.894005 22.425102 -2.871232
2007-04-11 06:25:36 51°13.601 2°56.099 12.901 2.889972 22.424928 -2.871232
2007-04-11 06:25:41 51°13.601 2°56.1 12.8622 2.886973 22.433091 -2.871232
2007-04-11 06:25:46 51°13.602 2°56.1 12.8127 2.886973 22.433091 -2.871232
2007-04-11 06:25:51 51°13.602 2°56.1 12.7383 2.884388 22.451093 -2.871232
2007-04-11 06:25:56 51°13.601 2°56.1 12.6938 2.88625 22.496865 -2.871232
2007-04-11 06:26:01 51°13.601 2°56.1 12.6552 2.87684 22.455336 -2.871232
2007-04-11 06:26:06 51°13.601 2°56.099 12.6102 2.884804 22.557988 -2.871232
2007-04-11 06:26:11 51°13.601 2°56.1 12.5749 2.879737 22.548616 -2.871232
2007-04-11 06:26:16 51°13.601 2°56.1 12.5138 2.879737 22.548616 -2.871232
2007-04-11 06:26:21 51°13.602 2°56.1 12.5173 2.870326 22.500157 -2.871232
2007-04-11 06:26:26 51°13.601 2°56.1 12.4583 2.872912 22.566383 -2.871232
2007-04-11 06:26:31 51°13.601 2°56.099 12.4059 2.87767 22.649566 -2.871232
2007-04-11 06:26:36 51°13.601 2°56.099 12.3757 2.876533 22.672268 -2.871232
2007-04-11 06:26:41 51°13.602 2°56.099 12.3078 2.873224 22.671349 -2.871232
2007-04-11 06:26:46 51°13.601 2°56.099 12.2057 2.873224 22.671349 -2.871232
2007-04-11 06:26:51 51°13.601 2°56.099 12.1318 2.851818 22.522164 -2.871232
2007-04-11 06:26:56 51°13.601 2°56.099 12.0813 2.859988 22.621016 -2.871232
2007-04-11 06:27:01 51°13.601 2°56.099 11.9572 2.868986 22.726282 -2.871232
2007-04-11 06:27:06 51°13.601 2°56.1 11.8602 2.883775 22.895479 -2.871232
2007-04-11 06:27:11 51°13.601 2°56.099 11.7735 2.886051 22.954641 -2.871232
2007-04-11 06:27:16 51°13.601 2°56.099 11.7157 2.886051 22.954641 -2.871232
2007-04-11 06:27:21 51°13.601 2°56.099 11.6575 2.890499 23.049563 -2.871232
2007-04-11 06:27:26 51°13.601 2°56.099 11.6339 2.900532 23.191931 -2.871232
2007-04-11 06:27:31 51°13.601 2°56.099 11.5569 2.915426 23.376277 -2.871232
2007-04-11 06:27:36 51°13.601 2°56.099 11.4903 2.933217 23.601422 -2.871232
2007-04-11 06:27:41 51°13.601 2°56.098 11.4422 2.933217 23.601422 -2.871232
2007-04-11 06:27:46 51°13.601 2°56.097 11.4275 2.949353 23.813877 -2.871232
2007-04-11 06:27:51 51°13.601 2°56.095 11.3065 2.945838 23.847071 -2.871232
2007-04-11 06:27:56 51°13.602 2°56.093 11.2719 2.96756 24.091119 -2.871232
2007-04-11 06:28:01 51°13.603 2°56.089 11.2672 2.990111 24.339096 -2.871232
2007-04-11 06:28:06 51°13.604 2°56.085 11.2844 2.997456 24.454391 -2.871232
2007-04-11 06:28:11 51°13.605 2°56.08 11.3494 3.010388 24.615757 -2.871232
2007-04-11 06:28:17 51°13.607 2°56.074 11.235 3.010388 24.615757 -2.871232
2007-04-11 06:28:21 51°13.608 2°56.069 11.1811 3.021561 24.755842 -2.871232
2007-04-11 06:28:26 51°13.61 2°56.063 11.1482 3.02239 24.821622 -2.871232
2007-04-11 06:28:31 51°13.612 2°56.056 11.1059 3.030563 24.935429 -2.871232
2007-04-11 06:28:36 51°13.614 2°56.049 11.047 3.032839 24.9702 -2.871232
2007-04-11 06:28:41 51°13.615 2°56.042 11.0128 3.01939 24.846858 -2.871232
2007-04-11 06:28:46 51°13.617 2°56.034 10.9746 3.01939 24.846858 -2.871232
2007-04-11 06:28:51 51°13.619 2°56.026 10.9673 3.030874 24.975065 -2.871232
2007-04-11 06:28:56 51°13.621 2°56.018 10.9631 3.046393 25.155809 -2.871232
2007-04-11 06:29:01 51°13.624 2°56.01 10.9564 3.048359 25.212257 -2.871232
2007-04-11 06:29:06 51°13.626 2°56.002 10.9386 3.068017 25.426271 -2.871232
2007-04-11 06:29:11 51°13.629 2°55.993 10.9236 3.068017 25.426271 -2.871232
2007-04-11 06:29:16 51°13.631 2°55.984 10.9259 3.073087 25.505449 -2.871232
2007-04-11 06:29:21 51°13.634 2°55.974 10.9325 3.078158 25.583578 -2.871232
2007-04-11 06:29:26 51°13.637 2°55.965 10.9094 3.062742 25.466821 -2.871232
2007-04-11 06:29:31 51°13.64 2°55.955 10.9069 3.068019 25.529192 -2.871232
2007-04-11 06:29:36 51°13.643 2°55.946 10.8815 3.06088 25.477558 -2.871232
2007-04-11 06:29:41 51°13.646 2°55.936 10.868 3.06088 25.477558 -2.871232
2007-04-11 06:29:46 51°13.649 2°55.927 10.834 3.063777 25.518758 -2.871232
2007-04-11 06:29:51 51°13.652 2°55.918 10.8434 3.059535 25.486737 -2.871232
2007-04-11 06:29:56 51°13.655 2°55.91 10.8543 3.059225 25.492127 -2.871232
2007-04-11 06:30:01 51°13.658 2°55.901 10.835 3.061501 25.521951 -2.871232
2007-04-11 06:30:06 51°13.66 2°55.893 10.8149 3.065019 25.566411 -2.871232
2007-04-11 06:30:12 51°13.663 2°55.884 10.8339 3.081574 25.730411 -2.871232
2007-04-11 06:30:16 51°13.665 2°55.878 10.8437 3.081574 25.730411 -2.871232
2007-04-11 06:30:21 51°13.667 2°55.87 10.842 3.089437 25.821567 -2.871232
2007-04-11 06:30:26 51°13.669 2°55.863 10.8483 3.090886 25.839445 -2.871232
2007-04-11 06:30:31 51°13.671 2°55.856 10.8618 3.076504 25.711875 -2.871232
2007-04-11 06:30:36 51°13.672 2°55.849 10.877 3.089748 25.845701 -2.871232
2007-04-11 06:30:41 51°13.674 2°55.842 10.8835 3.085609 25.810059 -2.871232
2007-04-11 06:30:46 51°13.675 2°55.836 10.8768 3.085609 25.810059 -2.871232
2007-04-11 06:30:51 51°13.677 2°55.83 10.8692 3.07071 25.669955 -2.871232
2007-04-11 06:30:55 51°13.677 2°55.825 10.8719 3.05995 25.570052 -2.871232
2007-04-11 06:31:00 51°13.679 2°55.819 10.8726 3.045776 25.436831 -2.871232
2007-04-11 06:31:05 51°13.68 2°55.813 10.8559 3.025189 25.240888 -2.871232
2007-04-11 06:31:10 51°13.68 2°55.808 10.8562 3.025189 25.240888 -2.871232
2007-04-11 06:31:15 51°13.681 2°55.802 10.8613 3.014223 25.133702 -2.871232
2007-04-11 06:31:20 51°13.682 2°55.797 10.8664 3.008326 25.078846 -2.871232
2007-04-11 06:31:24 51°13.682 2°55.793 10.8538 3.006361 25.061398 -2.871232
2007-04-11 06:31:29 51°13.683 2°55.788 10.8536 3.006981 25.06773 -2.871232
2007-04-11 06:31:34 51°13.683 2°55.783 10.8446 3.011016 25.108589 -2.871232
2007-04-11 06:31:39 51°13.683 2°55.779 10.856 3.012775 25.129154 -2.871232
2007-04-11 06:31:44 51°13.683 2°55.776 10.8633 3.012775 25.129154 -2.871232
2007-04-11 06:31:49 51°13.683 2°55.772 10.8689 3.011016 25.112974 -2.871232
2007-04-11 06:31:53 51°13.683 2°55.77 10.8622 3.013499 25.136444 -2.871232
2007-04-11 06:31:58 51°13.683 2°55.767 10.851 3.017637 25.178292 -2.871232
2007-04-11 06:32:03 51°13.683 2°55.764 10.8593 3.018361 25.188728 -2.871232
2007-04-11 06:32:08 51°13.683 2°55.762 10.8572 3.01981 25.202691 -2.871232
2007-04-11 06:32:13 51°13.683 2°55.76 10.8689 3.01981 25.202691 -2.871232
2007-04-11 06:32:18 51°13.683 2°55.759 10.8812 3.017637 25.179548 -2.871232
2007-04-11 06:32:23 51°13.683 2°55.758 10.8852 3.009878 25.106889 -2.871232
2007-04-11 06:32:28 51°13.683 2°55.757 10.8979 3.018465 25.187166 -2.871232
2007-04-11 06:32:32 51°13.683 2°55.756 10.8961 3.017016 25.175091 -2.871232
2007-04-11 06:32:37 51°13.684 2°55.756 10.8954 3.017016 25.175091 -2.871232
2007-04-11 06:32:42 51°13.684 2°55.756 10.902 3.00843 25.096068 -2.871232
2007-04-11 06:32:48 51°13.684 2°55.756 10.9135 2.99343 24.954358 -2.871232
2007-04-11 06:32:52 51°13.684 2°55.757 10.9079 2.977707 24.804901 -2.871232
2007-04-11 06:32:58 51°13.685 2°55.757 10.9095 2.962811 24.663208 -2.871232
2007-04-11 06:33:02 51°13.686 2°55.758 10.9091 2.955364 24.590579 -2.871232
2007-04-11 06:33:08 51°13.686 2°55.759 10.9114 2.946571 24.507507 -2.871232
2007-04-11 06:33:13 51°13.687 2°55.76 10.9125 2.946571 24.507507 -2.871232
2007-04-11 06:33:18 51°13.688 2°55.762 10.9203 2.935297 24.401131 -2.871232
2007-04-11 06:33:22 51°13.689 2°55.763 10.908 2.930436 24.352956 -2.871232
2007-04-11 06:33:27 51°13.69 2°55.764 10.9098 2.924954 24.30094 -2.871232
2007-04-11 06:33:33 51°13.692 2°55.766 10.9088 2.933642 24.379894 -2.871232
2007-04-11 06:33:38 51°13.693 2°55.767 10.8986 2.930436 24.349922 -2.871232
2007-04-11 06:33:42 51°13.694 2°55.768 10.9051 2.930436 24.349922 -2.871232
2007-04-11 06:33:48 51°13.696 2°55.77 10.9138 2.935504 24.395123 -2.871232
2007-04-11 06:33:52 51°13.697 2°55.77 10.9052 2.935297 24.392621 -2.871232
2007-04-11 06:33:58 51°13.698 2°55.771 10.904 2.935711 24.398233 -2.871232
2007-04-11 06:34:02 51°13.699 2°55.771 10.8989 2.936021 24.401684 -2.871232
2007-04-11 06:34:08 51°13.699 2°55.771 10.8979 2.939124 24.433153 -2.871232
2007-04-11 06:34:12 51°13.698 2°55.771 10.9001 2.939124 24.433153 -2.871232
2007-04-11 06:34:18 51°13.696 2°55.77 10.9026 2.940469 24.446692 -2.871232
2007-04-11 06:34:22 51°13.695 2°55.769 10.8972 2.941296 24.453665 -2.871232
2007-04-11 06:34:28 51°13.694 2°55.768 10.8874 2.942641 24.467207 -2.871232
2007-04-11 06:34:33 51°13.694 2°55.768 10.8814 2.937986 24.425772 -2.871232
2007-04-11 06:34:39 51°13.694 2°55.768 10.8584 2.937986 24.425772 -2.871232
2007-04-11 06:34:45 51°13.695 2°55.767 10.8538 2.938814 24.435181 -2.871232
2007-04-11 06:34:50 51°13.696 2°55.767 10.8479 2.942848 24.472762 -2.871232
2007-04-11 06:34:56 51°13.698 2°55.767 10.8403 2.942331 24.469241 -2.871232
2007-04-11 06:35:01 51°13.7 2°55.766 10.8347 2.94171 24.465992 -2.871232
2007-04-11 06:35:06 51°13.702 2°55.766 10.8293 2.960742 24.646067 -2.871232
2007-04-11 06:35:11 51°13.705 2°55.764 10.8349 2.966121 24.702827 -2.871232
2007-04-11 06:35:16 51°13.708 2°55.762 10.8407 2.966121 24.702827 -2.871232
2007-04-11 06:35:21 51°13.711 2°55.759 10.8454 2.986293 24.8962 -2.871232
2007-04-11 06:35:25 51°13.714 2°55.757 10.8358 2.998706 25.017224 -2.871232
2007-04-11 06:35:30 51°13.718 2°55.752 10.8324 3.01443 25.168872 -2.871232
2007-04-11 06:35:35 51°13.722 2°55.748 10.832 3.01681 25.195821 -2.871232
2007-04-11 06:35:40 51°13.726 2°55.742 10.826 3.017534 25.205012 -2.871232
2007-04-11 06:35:45 51°13.731 2°55.736 10.8229 3.017534 25.205012 -2.871232
2007-04-11 06:35:50 51°13.736 2°55.73 10.8271 3.01681 25.19708 -2.871232
2007-04-11 06:35:55 51°13.741 2°55.724 10.8344 3.021775 25.242838 -2.871232
2007-04-11 06:36:00 51°13.747 2°55.717 10.8443 3.019706 25.225031 -2.871232
2007-04-11 06:36:04 51°13.752 2°55.711 10.8656 3.015155 25.185605 -2.871232
2007-04-11 06:36:09 51°13.758 2°55.704 10.8786 3.015155 25.185605 -2.871232
2007-04-11 06:36:14 51°13.765 2°55.697 10.8886 3.017741 25.211957 -2.871232
2007-04-11 06:36:19 51°13.772 2°55.69 10.8912 3.023431 25.26693 -2.871232
2007-04-11 06:36:24 51°13.779 2°55.682 10.8907 3.021569 25.2485 -2.871232
2007-04-11 06:36:29 51°13.787 2°55.675 10.8858 3.013189 25.168751 -2.871232
2007-04-11 06:36:33 51°13.793 2°55.669 10.8817 2.99943 25.033261 -2.871232
2007-04-11 06:36:38 51°13.801 2°55.662 10.8747 2.99943 25.033261 -2.871232
2007-04-11 06:36:43 51°13.81 2°55.655 10.8628 2.97119 24.764199 -2.871232
2007-04-11 06:36:48 51°13.819 2°55.648 10.8572 2.963432 24.684907 -2.871232
2007-04-11 06:36:53 51°13.827 2°55.64 10.8562 2.948744 24.544553 -2.871232
2007-04-11 06:36:58 51°13.837 2°55.632 10.8476 2.95464 24.596815 -2.871232
2007-04-11 06:37:02 51°13.845 2°55.627 10.8254 2.964259 24.686347 -2.871232
2007-04-11 06:37:08 51°13.856 2°55.617 10.8237 2.970156 24.742958 -2.871232
2007-04-11 06:37:13 51°13.866 2°55.611 10.8091 2.970156 24.742958 -2.871232
2007-04-11 06:37:18 51°13.877 2°55.604 10.8054 2.97781 24.819471 -2.871232
2007-04-11 06:37:22 51°13.885 2°55.597 10.7996 2.98981 24.93476 -2.871232
2007-04-11 06:37:28 51°13.898 2°55.588 10.7907 3.003465 25.065394 -2.871232
2007-04-11 06:37:33 51°13.908 2°55.579 10.7932 3.009465 25.128789 -2.871232
2007-04-11 06:37:38 51°13.919 2°55.571 10.8004 3.025603 25.285697 -2.871232
2007-04-11 06:37:42 51°13.928 2°55.565 10.8015 3.025603 25.285697 -2.871232
2007-04-11 06:37:48 51°13.941 2°55.555 10.8004 3.035949 25.389355 -2.871232
2007-04-11 06:37:53 51°13.953 2°55.547 10.8105 3.050226 25.526885 -2.871232
2007-04-11 06:37:58 51°13.964 2°55.539 10.805 3.062227 25.643527 -2.871232
2007-04-11 06:38:02 51°13.973 2°55.533 10.8119 3.064917 25.672887 -2.871232
2007-04-11 06:38:07 51°13.985 2°55.525 10.8106 3.064917 25.672887 -2.871232
2007-04-11 06:38:12 51°13.996 2°55.518 10.8128 3.067194 25.693932 -2.871232
2007-04-11 06:38:18 51°14.01 2°55.508 10.8142 3.067194 25.693932 -2.871232
2007-04-11 06:38:22 51°14.019 2°55.502 10.8134 3.060365 25.630161 -2.871232
2007-04-11 06:38:28 51°14.033 2°55.492 10.8119 3.055813 25.586167 -2.871232
2007-04-11 06:38:32 51°14.042 2°55.485 10.8113 3.056951 25.595403 -2.871232
2007-04-11 06:38:38 51°14.055 2°55.475 10.8059 3.053537 25.562577 -2.871232
2007-04-11 06:38:42 51°14.065 2°55.468 10.8174 3.053537 25.562577 -2.871232
2007-04-11 06:38:48 51°14.078 2°55.458 10.8209 3.051778 25.546328 -2.871232
2007-04-11 06:38:53 51°14.09 2°55.449 10.8294 3.055813 25.582967 -2.871232
2007-04-11 06:38:58 51°14.101 2°55.441 10.8294 3.051261 25.540272 -2.871232
2007-04-11 06:39:03 51°14.113 2°55.432 10.827 3.042053 25.456506 -2.871232
2007-04-11 06:39:08 51°14.124 2°55.424 10.8265 3.042674 25.462875 -2.871232
2007-04-11 06:39:13 51°14.136 2°55.415 10.8297 3.042674 25.462875 -2.871232
2007-04-11 06:39:18 51°14.147 2°55.406 10.83 3.039053 25.426895 -2.871232
2007-04-11 06:39:23 51°14.159 2°55.396 10.8235 3.03119 25.351149 -2.871232
2007-04-11 06:39:29 51°14.173 2°55.383 10.8144 3.016707 25.215023 -2.871232
2007-04-11 06:39:35 51°14.187 2°55.37 10.8129 3.01981 25.241749 -2.871232
2007-04-11 06:39:40 51°14.199 2°55.358 10.8044 3.01981 25.241749 -2.871232
2007-04-11 06:39:46 51°14.213 2°55.342 10.7953 3.013293 25.181658 -2.871232
2007-04-11 06:39:51 51°14.225 2°55.329 10.7988 3.013603 25.18326 -2.871232
2007-04-11 06:39:56 51°14.236 2°55.314 10.8037 3.020017 25.243026 -2.871232
2007-04-11 06:40:01 51°14.247 2°55.298 10.8079 3.024362 25.286256 -2.871232
2007-04-11 06:40:06 51°14.257 2°55.282 10.8286 3.023224 25.278919 -2.871232
2007-04-11 06:40:11 51°14.268 2°55.265 10.8384 3.023224 25.278919 -2.871232
2007-04-11 06:40:16 51°14.278 2°55.248 10.8401 3.015362 25.211446 -2.871232
2007-04-11 06:40:21 51°14.289 2°55.23 10.8456 3.025397 25.308454 -2.871232
2007-04-11 06:40:26 51°14.299 2°55.211 10.8446 3.038535 25.431023 -2.871232
2007-04-11 06:40:31 51°14.31 2°55.191 10.8426 3.02281 25.283953 -2.871232
2007-04-11 06:40:35 51°14.318 2°55.175 10.8363 3.016293 25.218773 -2.871232
2007-04-11 06:40:41 51°14.329 2°55.151 10.8319 2.997982 25.043697 -2.871232
2007-04-11 06:40:45 51°14.337 2°55.134 10.8252 2.997982 25.043697 -2.871232
2007-04-11 06:40:50 51°14.346 2°55.112 10.8175 2.987845 24.944705 -2.871232
2007-04-11 06:40:55 51°14.356 2°55.09 10.8157 2.981845 24.885742 -2.871232
2007-04-11 06:41:00 51°14.365 2°55.068 10.7942 2.97119 24.785854 -2.871232
2007-04-11 06:41:05 51°14.375 2°55.045 10.7693 2.977397 24.84419 -2.871232
2007-04-11 06:41:09 51°14.382 2°55.026 10.7634 2.981224 24.881895 -2.871232
2007-04-11 06:41:14 51°14.392 2°55.002 10.7474 2.981224 24.881895 -2.871232
2007-04-11 06:41:19 51°14.402 2°54.978 10.7268 2.980707 24.881487 -2.871232
2007-04-11 06:41:24 51°14.413 2°54.954 10.7066 2.988362 24.956328 -2.871232
2007-04-11 06:41:29 51°14.424 2°54.931 10.6887 2.994465 25.018175 -2.871232
2007-04-11 06:41:34 51°14.435 2°54.908 10.6702 3.027673 25.335798 -2.871232
2007-04-11 06:41:38 51°14.445 2°54.89 10.6433 3.027673 25.335798 -2.871232
2007-04-11 06:41:43 51°14.457 2°54.867 10.6165 3.043502 25.49411 -2.871232
2007-04-11 06:41:48 51°14.469 2°54.845 10.5965 3.065642 25.710457 -2.871232
2007-04-11 06:41:53 51°14.48 2°54.822 10.5643 3.085818 25.910941 -2.871232
2007-04-11 06:41:58 51°14.491 2°54.799 10.5273 3.105063 26.10579 -2.871232
2007-04-11 06:42:02 51°14.5 2°54.78 10.5169 3.12493 26.305502 -2.871232
2007-04-11 06:42:08 51°14.512 2°54.751 10.4818 3.14604 26.520515 -2.871232
2007-04-11 06:42:12 51°14.52 2°54.732 10.4646 3.14604 26.520515 -2.871232
2007-04-11 06:42:17 51°14.53 2°54.708 10.4395 3.171187 26.777723 -2.871232
2007-04-11 06:42:22 51°14.54 2°54.684 10.4281 3.185261 26.926713 -2.871232
2007-04-11 06:42:28 51°14.552 2°54.655 10.4055 3.213826 27.221194 -2.871232
2007-04-11 06:42:33 51°14.562 2°54.631 10.4095 3.23732 27.46626 -2.871232
2007-04-11 06:42:38 51°14.571 2°54.607 10.3895 3.259988 27.701437 -2.871232
2007-04-11 06:42:42 51°14.579 2°54.588 10.3759 3.259988 27.701437 -2.871232
2007-04-11 06:42:48 51°14.591 2°54.559 10.3601 3.282657 27.937224 -2.871232
2007-04-11 06:42:53 51°14.601 2°54.534 10.3542 3.296942 28.097366 -2.871232
2007-04-11 06:42:58 51°14.61 2°54.51 10.3528 3.309778 28.234908 -2.871232
2007-04-11 06:43:02 51°14.618 2°54.491 10.3514 3.316818 28.315013 -2.871232
2007-04-11 06:43:08 51°14.63 2°54.462 10.3441 3.316818 28.315013 -2.871232
2007-04-11 06:43:12 51°14.637 2°54.443 10.3232 3.326756 28.419757 -2.871232
2007-04-11 06:43:17 51°14.647 2°54.418 10.3228 3.332554 28.488315 -2.871232
2007-04-11 06:43:23 51°14.655 2°54.387 10.321 3.334935 28.523148 -2.871232
2007-04-11 06:43:28 51°14.663 2°54.362 10.3286 3.338662 28.566418 -2.871232
2007-04-11 06:43:32 51°14.668 2°54.341 10.3185 3.34508 28.633783 -2.871232
2007-04-11 06:43:37 51°14.674 2°54.315 10.3177 3.34508 28.633783 -2.871232
2007-04-11 06:43:43 51°14.681 2°54.283 10.3112 3.345391 28.644724 -2.871232
2007-04-11 06:43:48 51°14.687 2°54.257 10.3023 3.347772 28.677496 -2.871232
2007-04-11 06:43:52 51°14.691 2°54.236 10.3076 3.3515 28.719423 -2.871232
2007-04-11 06:43:58 51°14.697 2°54.204 10.3052 3.350671 28.715209 -2.871232
2007-04-11 06:44:02 51°14.701 2°54.182 10.3008 3.350671 28.718127 -2.871232
2007-04-11 06:44:08 51°14.706 2°54.15 10.3008 3.350154 28.71759 -2.871232
2007-04-11 06:44:12 51°14.708 2°54.128 10.2975 3.350154 28.71759 -2.871232
2007-04-11 06:44:18 51°14.711 2°54.096 10.2995 3.3515 28.73475 -2.871232
2007-04-11 06:44:22 51°14.712 2°54.074 10.2915 3.350361 28.728316 -2.871232
2007-04-11 06:44:28 51°14.714 2°54.041 10.287 3.34829 28.710841 -2.871232
2007-04-11 06:44:33 51°14.715 2°54.014 10.2776 3.352535 28.75335 -2.871232
2007-04-11 06:44:38 51°14.717 2°53.986 10.2838 3.349636 28.728005 -2.871232
2007-04-11 06:44:42 51°14.718 2°53.964 10.2834 3.349636 28.728005 -2.871232
2007-04-11 06:44:48 51°14.719 2°53.931 10.2838 3.351396 28.747648 -2.871232
2007-04-11 06:44:53 51°14.72 2°53.903 10.2846 3.352846 28.762882 -2.871232
2007-04-11 06:44:58 51°14.721 2°53.875 10.2806 3.353467 28.771711 -2.871232
2007-04-11 06:45:02 51°14.722 2°53.853 10.2765 3.354709 28.788643 -2.871232
2007-04-11 06:45:08 51°14.724 2°53.82 10.2791 3.354709 28.788643 -2.871232
2007-04-11 06:45:12 51°14.724 2°53.797 10.28 3.351811 28.763285 -2.871232
2007-04-11 06:45:18 51°14.726 2°53.763 10.2743 3.354088 28.784935 -2.871232
2007-04-11 06:45:22 51°14.727 2°53.741 10.2746 3.355641 28.801163 -2.871232
2007-04-11 06:45:28 51°14.728 2°53.707 10.2707 3.353881 28.785163 -2.871232
2007-04-11 06:45:33 51°14.73 2°53.679 10.2696 3.356987 28.816158 -2.871232
2007-04-11 06:45:38 51°14.731 2°53.65 10.2675 3.357401 28.821562 -2.871232
2007-04-11 06:45:43 51°14.732 2°53.622 10.2685 3.357401 28.821562 -2.871232
2007-04-11 06:45:48 51°14.734 2°53.593 10.2682 3.359783 28.845674 -2.871232
2007-04-11 06:45:53 51°14.735 2°53.565 10.2716 3.361439 28.862898 -2.871232
2007-04-11 06:45:57 51°14.736 2°53.542 10.2686 3.361957 28.869291 -2.871232
2007-04-11 06:46:03 51°14.738 2°53.508 10.2665 3.362474 28.87642 -2.871232
2007-04-11 06:46:08 51°14.739 2°53.479 10.2632 3.36527 28.905222 -2.871232
2007-04-11 06:46:12 51°14.74 2°53.457 10.2656 3.36527 28.905222 -2.871232
2007-04-11 06:46:18 51°14.742 2°53.422 10.2708 3.367547 28.927632 -2.871232
2007-04-11 06:46:22 51°14.743 2°53.399 10.2649 3.364649 28.900046 -2.871232
2007-04-11 06:46:28 51°14.745 2°53.365 10.2648 3.366616 28.918765 -2.871232
2007-04-11 06:46:33 51°14.747 2°53.337 10.2656 3.367651 28.929354 -2.871232
2007-04-11 06:46:38 51°14.748 2°53.308 10.2629 3.363096 28.888211 -2.871232
2007-04-11 06:46:42 51°14.75 2°53.285 10.2661 3.363096 28.888211 -2.871232
2007-04-11 06:46:47 51°14.751 2°53.256 10.2639 3.367858 28.93427 -2.871232
2007-04-11 06:46:52 51°14.753 2°53.228 10.2645 3.367962 28.934519 -2.871232
2007-04-11 06:46:58 51°14.755 2°53.194 10.2649 3.364752 28.905446 -2.871232
2007-04-11 06:47:02 51°14.757 2°53.171 10.2689 3.364442 28.903226 -2.871232
2007-04-11 06:47:08 51°14.759 2°53.136 10.2637 3.364442 28.903226 -2.871232
2007-04-11 06:47:13 51°14.761 2°53.108 10.2628 3.365477 28.913079 -2.871232
2007-04-11 06:47:18 51°14.763 2°53.079 10.2642 3.366098 28.918991 -2.871232
2007-04-11 06:47:22 51°14.764 2°53.056 10.2683 3.363406 28.894109 -2.871232
2007-04-11 06:47:28 51°14.766 2°53.022 10.2691 3.362475 28.885977 -2.871232
2007-04-11 06:47:32 51°14.768 2°52.999 10.2739 3.362889 28.889182 -2.871232
2007-04-11 06:47:38 51°14.77 2°52.964 10.2703 3.363303 28.893123 -2.871232
2007-04-11 06:47:42 51°14.772 2°52.941 10.2731 3.363303 28.893123 -2.871232
2007-04-11 06:47:48 51°14.774 2°52.907 10.2713 3.359679 28.858642 -2.871232
2007-04-11 06:47:53 51°14.775 2°52.878 10.2713 3.361543 28.877845 -2.871232
2007-04-11 06:47:58 51°14.777 2°52.85 10.2736 3.358644 28.848791 -2.871232
2007-04-11 06:48:02 51°14.779 2°52.827 10.2697 3.359886 28.858408 -2.871232
2007-04-11 06:48:08 51°14.781 2°52.793 10.2716 3.35854 28.844134 -2.871232
2007-04-11 06:48:13 51°14.783 2°52.764 10.274 3.35854 28.844134 -2.871232
2007-04-11 06:48:18 51°14.786 2°52.735 10.2723 3.358851 28.847089 -2.871232
2007-04-11 06:48:23 51°14.789 2°52.707 10.2767 3.360921 28.866789 -2.871232
2007-04-11 06:48:28 51°14.792 2°52.679 10.2761 3.358023 28.838475 -2.871232
2007-04-11 06:48:33 51°14.795 2°52.651 10.2746 3.361543 28.872699 -2.871232
2007-04-11 06:48:37 51°14.797 2°52.629 10.2741 3.361543 28.872699 -2.871232
2007-04-11 06:48:42 51°14.8 2°52.6 10.2744 3.361853 28.874919 -2.871232
2007-04-11 06:48:48 51°14.804 2°52.567 10.2761 3.368065 28.934031 -2.871232
2007-04-11 06:48:53 51°14.807 2°52.538 10.271 3.368893 28.941178 -2.871232
2007-04-11 06:48:57 51°14.809 2°52.516 10.2685 3.371068 28.95966 -2.871232
2007-04-11 06:49:02 51°14.812 2°52.488 10.2668 3.371585 28.964587 -2.871232
2007-04-11 06:49:08 51°14.815 2°52.454 10.2669 3.370757 28.956704 -2.871232
2007-04-11 06:49:13 51°14.818 2°52.426 10.2628 3.370757 28.956704 -2.871232
2007-04-11 06:49:17 51°14.82 2°52.404 10.2583 3.370239 28.953251 -2.871232
2007-04-11 06:49:22 51°14.823 2°52.376 10.2542 3.371378 28.96409 -2.871232
2007-04-11 06:49:28 51°14.826 2°52.342 10.2493 3.373345 28.985766 -2.871232
2007-04-11 06:49:32 51°14.829 2°52.32 10.2449 3.375934 29.012624 -2.871232
2007-04-11 06:49:37 51°14.832 2°52.292 10.243 3.378315 29.036778 -2.871232
2007-04-11 06:49:43 51°14.836 2°52.258 10.2371 3.378315 29.036778 -2.871232
2007-04-11 06:49:48 51°14.838 2°52.23 10.2365 3.378626 29.040475 -2.871232
2007-04-11 06:49:52 51°14.841 2°52.208 10.2271 3.378833 29.046884 -2.871232
2007-04-11 06:49:58 51°14.844 2°52.175 10.225 3.38256 29.086094 -2.871232
2007-04-11 06:50:03 51°14.846 2°52.146 10.2185 3.382457 29.090294 -2.871232
2007-04-11 06:50:08 51°14.848 2°52.118 10.2134 3.383078 29.098438 -2.871232
2007-04-11 06:50:13 51°14.85 2°52.09 10.2089 3.383078 29.098438 -2.871232
2007-04-11 06:50:18 51°14.853 2°52.062 10.2057 3.383699 29.108066 -2.871232
2007-04-11 06:50:23 51°14.855 2°52.034 10.2006 3.381939 29.094996 -2.871232
2007-04-11 06:50:28 51°14.857 2°52.006 10.201 3.383699 29.115485 -2.871232
2007-04-11 06:50:32 51°14.858 2°51.984 10.1953 3.384942 29.133271 -2.871232
2007-04-11 06:50:37 51°14.86 2°51.956 10.1868 3.384942 29.133271 -2.871232
2007-04-11 06:50:43 51°14.862 2°51.922 10.1828 3.385149 29.140446 -2.871232
2007-04-11 06:50:48 51°14.864 2°51.894 10.1699 3.383285 29.127126 -2.871232
2007-04-11 06:50:53 51°14.865 2°51.866 10.1771 3.387427 29.1711 -2.871232
2007-04-11 06:50:58 51°14.866 2°51.838 10.1703 3.38898 29.190389 -2.871232
2007-04-11 06:51:02 51°14.866 2°51.815 10.1582 3.381939 29.12617 -2.871232
2007-04-11 06:51:08 51°14.867 2°51.782 10.1568 3.386495 29.175603 -2.871232
2007-04-11 06:51:13 51°14.867 2°51.753 10.1497 3.386495 29.175603 -2.871232
2007-04-11 06:51:18 51°14.868 2°51.725 10.145 3.389394 29.208499 -2.871232
2007-04-11 06:51:22 51°14.868 2°51.703 10.1389 3.388048 29.200863 -2.871232
2007-04-11 06:51:27 51°14.869 2°51.674 10.127 3.38898 29.213491 -2.871232
2007-04-11 06:51:33 51°14.87 2°51.64 10.1208 3.388773 29.216735 -2.871232
2007-04-11 06:51:38 51°14.871 2°51.612 10.1208 3.38898 29.22543 -2.871232
2007-04-11 06:51:42 51°14.871 2°51.59 10.1077 3.38898 29.22543 -2.871232
2007-04-11 06:51:48 51°14.873 2°51.556 10.1042 3.389084 29.2309 -2.871232
2007-04-11 06:51:53 51°14.873 2°51.528 10.1027 3.391983 29.263844 -2.871232
2007-04-11 06:51:58 51°14.874 2°51.499 10.0917 3.394261 29.29236 -2.871232
2007-04-11 06:52:03 51°14.875 2°51.471 10.0858 3.395504 29.310986 -2.871232
2007-04-11 06:52:08 51°14.876 2°51.443 10.0829 3.395504 29.310986 -2.871232
2007-04-11 06:52:12 51°14.877 2°51.42 10.0743 3.395504 29.317731 -2.871232
2007-04-11 06:52:18 51°14.878 2°51.387 10.0744 3.396125 29.330426 -2.871232
2007-04-11 06:52:23 51°14.878 2°51.358 10.0673 3.398921 29.363945 -2.871232
2007-04-11 06:52:28 51°14.88 2°51.33 10.0699 3.401095 29.390781 -2.871232
2007-04-11 06:52:32 51°14.88 2°51.308 10.0592 3.40213 29.407471 -2.871232
2007-04-11 06:52:38 51°14.882 2°51.275 10.0613 3.40213 29.407471 -2.871232
2007-04-11 06:52:42 51°14.882 2°51.252 10.0611 3.401302 29.404804 -2.871232
2007-04-11 06:52:48 51°14.883 2°51.219 10.0594 3.404719 29.443577 -2.871232
2007-04-11 06:52:53 51°14.884 2°51.191 10.0592 3.405651 29.455527 -2.871232
2007-04-11 06:52:58 51°14.885 2°51.163 10.0599 3.404409 29.44814 -2.871232
2007-04-11 06:53:03 51°14.886 2°51.135 10.0713 3.403891 29.446948 -2.871232
2007-04-11 06:53:08 51°14.887 2°51.107 10.0735 3.405444 29.465615 -2.871232
2007-04-11 06:53:13 51°14.888 2°51.079 10.077 3.405444 29.465615 -2.871232
2007-04-11 06:53:18 51°14.889 2°51.051 10.0736 3.401613 29.430384 -2.871232
2007-04-11 06:53:22 51°14.889 2°51.029 10.0718 3.403995 29.454732 -2.871232
2007-04-11 06:53:28 51°14.89 2°50.996 10.0743 3.399025 29.407824 -2.871232
2007-04-11 06:53:33 51°14.891 2°50.968 10.0796 3.399232 29.406795 -2.871232
2007-04-11 06:53:38 51°14.892 2°50.94 10.0732 3.397886 29.390125 -2.871232
2007-04-11 06:53:42 51°14.893 2°50.917 10.0728 3.397886 29.390125 -2.871232
2007-04-11 06:53:48 51°14.894 2°50.884 10.0738 3.39861 29.394814 -2.871232
2007-04-11 06:53:53 51°14.895 2°50.856 10.0745 3.393848 29.347659 -2.871232
2007-04-11 06:53:58 51°14.896 2°50.828 10.0756 3.393641 29.345674 -2.871232
2007-04-11 06:54:02 51°14.896 2°50.805 10.0709 3.39654 29.372707 -2.871232
2007-04-11 06:54:08 51°14.897 2°50.772 10.0701 3.39654 29.372707 -2.871232
2007-04-11 06:54:13 51°14.898 2°50.744 10.0699 3.394158 29.350635 -2.871232
2007-04-11 06:54:18 51°14.899 2°50.716 10.0704 3.394158 29.350635 -2.871232
2007-04-11 06:54:22 51°14.9 2°50.693 10.067 3.399025 29.397278 -2.871232
2007-04-11 06:54:28 51°14.901 2°50.66 10.0674 3.397886 29.386361 -2.871232
2007-04-11 06:54:32 51°14.902 2°50.637 10.0681 3.392502 29.335511 -2.871232
2007-04-11 06:54:37 51°14.903 2°50.61 10.0664 3.399956 29.407717 -2.871232
2007-04-11 06:54:43 51°14.904 2°50.576 10.0667 3.399956 29.407717 -2.871232
2007-04-11 06:54:48 51°14.905 2°50.548 10.0686 3.395504 29.365792 -2.871232
2007-04-11 06:54:52 51°14.906 2°50.526 10.0695 3.39478 29.359597 -2.871232
2007-04-11 06:54:57 51°14.907 2°50.498 10.0665 3.400371 29.413948 -2.871232
2007-04-11 06:55:03 51°14.909 2°50.464 10.0716 3.399128 29.403542 -2.871232
2007-04-11 06:55:08 51°14.91 2°50.436 10.0711 3.400681 29.418433 -2.871232
2007-04-11 06:55:13 51°14.912 2°50.408 10.0695 3.400681 29.418433 -2.871232
2007-04-11 06:55:17 51°14.913 2°50.386 10.0675 3.399646 29.408506 -2.871232
2007-04-11 06:55:22 51°14.914 2°50.358 10.068 3.402234 29.434079 -2.871232
2007-04-11 06:55:28 51°14.915 2°50.324 10.071 3.401095 29.423158 -2.871232
2007-04-11 06:55:32 51°14.916 2°50.302 10.0729 3.40182 29.430108 -2.871232
2007-04-11 06:55:37 51°14.917 2°50.274 10.0791 3.397782 29.389885 -2.871232
2007-04-11 06:55:42 51°14.917 2°50.246 10.0787 3.397782 29.389885 -2.871232
2007-04-11 06:55:48 51°14.919 2°50.212 10.0809 3.400371 29.414702 -2.871232
2007-04-11 06:55:53 51°14.92 2°50.184 10.0831 3.399853 29.410491 -2.871232
2007-04-11 06:55:58 51°14.921 2°50.157 10.0861 3.400164 29.41347 -2.871232
2007-04-11 06:56:02 51°14.922 2°50.134 10.086 3.400164 29.411963 -2.871232
2007-04-11 06:56:08 51°14.922 2°50.101 10.0893 3.400164 29.411963 -2.871232
2007-04-11 06:56:13 51°14.924 2°50.073 10.0869 3.401302 29.420621 -2.871232
2007-04-11 06:56:18 51°14.925 2°50.045 10.0893 3.398817 29.39454 -2.871232
2007-04-11 06:56:23 51°14.926 2°50.017 10.0938 3.399439 29.398989 -2.871232
2007-04-11 06:56:28 51°14.927 2°49.99 10.0922 3.400681 29.408639 -2.871232
2007-04-11 06:56:33 51°14.928 2°49.962 10.097 3.399439 29.395225 -2.871232
2007-04-11 06:56:38 51°14.929 2°49.934 10.0964 3.39861 29.385781 -2.871232
2007-04-11 06:56:42 51°14.93 2°49.912 10.0941 3.39861 29.385781 -2.871232
2007-04-11 06:56:48 51°14.931 2°49.878 10.0931 3.398507 29.383284 -2.871232
2007-04-11 06:56:52 51°14.932 2°49.856 10.0936 3.400992 29.406345 -2.871232
2007-04-11 06:56:57 51°14.933 2°49.828 10.0925 3.399749 29.392933 -2.871232
2007-04-11 06:57:03 51°14.934 2°49.795 10.0917 3.39685 29.362899 -2.871232
2007-04-11 06:57:08 51°14.935 2°49.767 10.0865 3.400163 29.393891 -2.871232
2007-04-11 06:57:12 51°14.936 2°49.744 10.0897 3.400163 29.393891 -2.871232
2007-04-11 06:57:17 51°14.937 2°49.716 10.0848 3.399646 29.388931 -2.871232
2007-04-11 06:57:23 51°14.938 2°49.683 10.0828 3.399024 29.382979 -2.871232
2007-04-11 06:57:28 51°14.939 2°49.655 10.0799 3.399128 29.384723 -2.871232
2007-04-11 06:57:33 51°14.94 2°49.627 10.0801 3.399542 29.389444 -2.871232
2007-04-11 06:57:38 51°14.941 2°49.599 10.0787 3.401716 29.411785 -2.871232
2007-04-11 06:57:42 51°14.942 2°49.577 10.0768 3.401716 29.411785 -2.871232
2007-04-11 06:57:48 51°14.944 2°49.543 10.0791 3.3983 29.379043 -2.871232
2007-04-11 06:57:53 51°14.945 2°49.515 10.0771 3.400578 29.403882 -2.871232
2007-04-11 06:57:58 51°14.946 2°49.487 10.0784 3.397471 29.376371 -2.871232
2007-04-11 06:58:02 51°14.947 2°49.465 10.0758 3.398714 29.389784 -2.871232
2007-04-11 06:58:08 51°14.949 2°49.431 10.0736 3.397679 29.381366 -2.871232
2007-04-11 06:58:13 51°14.95 2°49.403 10.0741 3.397679 29.381366 -2.871232
2007-04-11 06:58:18 51°14.951 2°49.375 10.072 3.403477 29.437698 -2.871232
2007-04-11 06:58:22 51°14.952 2°49.353 10.0668 3.407618 29.478162 -2.871232
2007-04-11 06:58:28 51°14.953 2°49.319 10.0719 3.406997 29.47296 -2.871232
2007-04-11 06:58:33 51°14.955 2°49.291 10.0674 3.404616 29.450126 -2.871232
2007-04-11 06:58:38 51°14.956 2°49.263 10.0643 3.408861 29.492343 -2.871232
2007-04-11 06:58:42 51°14.957 2°49.241 10.0621 3.408861 29.492343 -2.871232
2007-04-11 06:58:48 51°14.958 2°49.207 10.0634 3.409275 29.497826 -2.871232
2007-04-11 06:58:53 51°14.959 2°49.179 10.0624 3.410311 29.508513 -2.871232
2007-04-11 06:58:58 51°14.96 2°49.152 10.0587 3.409586 29.503073 -2.871232
2007-04-11 06:59:03 51°14.961 2°49.124 10.0591 3.411242 29.51972 -2.871232
2007-04-11 06:59:08 51°14.962 2°49.096 10.0524 3.412381 29.532916 -2.871232
2007-04-11 06:59:13 51°14.963 2°49.068 10.0529 3.412381 29.532916 -2.871232
2007-04-11 06:59:18 51°14.964 2°49.04 10.046 3.411346 29.524495 -2.871232
2007-04-11 06:59:23 51°14.965 2°49.012 10.0454 3.412278 29.534193 -2.871232
2007-04-11 06:59:28 51°14.966 2°48.984 10.0456 3.414245 29.555341 -2.871232
2007-04-11 06:59:33 51°14.966 2°48.956 10.0427 3.415281 29.56755 -2.871232
2007-04-11 06:59:37 51°14.967 2°48.933 10.0376 3.413624 29.553923 -2.871232
2007-04-11 06:59:42 51°14.968 2°48.905 10.0392 3.413624 29.553923 -2.871232
2007-04-11 06:59:48 51°14.97 2°48.872 10.0383 3.414763 29.567128 -2.871232
2007-04-11 06:59:52 51°14.97 2°48.849 10.0307 3.416316 29.584312 -2.871232
2007-04-11 06:59:57 51°14.971 2°48.821 10.0351 3.415695 29.580623 -2.871232
2007-04-11 07:00:03 51°14.973 2°48.788 10.0287 3.418077 29.605765 -2.871232
2007-04-11 07:00:08 51°14.974 2°48.76 10.0322 3.419423 29.620969 -2.871232
2007-04-11 07:00:13 51°14.975 2°48.732 10.0246 3.419423 29.620969 -2.871232
2007-04-11 07:00:17 51°14.976 2°48.709 10.0264 3.420355 29.632198 -2.871232
2007-04-11 07:00:22 51°14.977 2°48.681 10.0233 3.419526 29.625762 -2.871232
2007-04-11 07:00:28 51°14.978 2°48.648 10.0206 3.421494 29.646939 -2.871232
2007-04-11 07:00:33 51°14.979 2°48.62 10.0184 3.416731 29.604225 -2.871232
2007-04-11 07:00:38 51°14.981 2°48.592 10.0189 3.422011 29.656477 -2.871232
2007-04-11 07:00:42 51°14.981 2°48.57 10.0153 3.422011 29.656477 -2.871232
2007-04-11 07:00:48 51°14.983 2°48.536 10.0177 3.420251 29.641085 -2.871232
2007-04-11 07:00:53 51°14.984 2°48.509 10.0199 3.422633 29.66549 -2.871232
2007-04-11 07:00:58 51°14.985 2°48.481 10.0185 3.423047 29.671754 -2.871232
2007-04-11 07:01:03 51°14.986 2°48.453 10.0232 3.420148 29.645414 -2.871232
2007-04-11 07:01:08 51°14.987 2°48.425 10.0213 3.42108 29.655891 -2.871232
2007-04-11 07:01:12 51°14.988 2°48.403 10.0199 3.42108 29.655891 -2.871232
2007-04-11 07:01:17 51°14.99 2°48.375 10.0198 3.424186 29.68727 -2.871232
2007-04-11 07:01:22 51°14.991 2°48.347 10.0227 3.41611 29.61041 -2.871232
2007-04-11 07:01:28 51°14.992 2°48.314 10.0231 3.421287 29.659403 -2.871232
2007-04-11 07:01:32 51°14.993 2°48.292 10.0269 3.417559 29.62282 -2.871232
2007-04-11 07:01:37 51°14.994 2°48.264 10.0242 3.417559 29.62282 -2.871232
2007-04-11 07:01:43 51°14.996 2°48.231 10.0238 3.420562 29.650916 -2.871232
2007-04-11 07:01:48 51°14.997 2°48.203 10.0237 3.420458 29.64992 -2.871232
2007-04-11 07:01:53 51°14.998 2°48.175 10.0251 3.419319 29.638975 -2.871232
2007-04-11 07:01:58 51°15 2°48.148 10.0258 3.41963 29.64196 -2.871232
2007-04-11 07:02:03 51°15.001 2°48.12 10.0285 3.415074 29.596663 -2.871232
2007-04-11 07:02:08 51°15.002 2°48.093 10.0301 3.416731 29.612581 -2.871232
2007-04-11 07:02:13 51°15.003 2°48.065 10.0326 3.416731 29.612581 -2.871232
2007-04-11 07:02:18 51°15.004 2°48.037 10.0345 3.419216 29.635698 -2.871232
2007-04-11 07:02:22 51°15.005 2°48.015 10.0339 3.416938 29.61457 -2.871232
2007-04-11 07:02:28 51°15.006 2°47.982 10.0359 3.418077 29.624754 -2.871232
2007-04-11 07:02:33 51°15.008 2°47.955 10.0293 3.418491 29.627214 -2.871232
2007-04-11 07:02:38 51°15.009 2°47.927 10.0207 3.415488 29.597605 -2.871232
2007-04-11 07:02:42 51°15.01 2°47.905 10.0157 3.415488 29.597605 -2.871232
2007-04-11 07:02:48 51°15.012 2°47.872 10.0057 3.415902 29.599306 -2.871232
2007-04-11 07:02:53 51°15.013 2°47.844 9.994 3.415074 29.59059 -2.871232
2007-04-11 07:02:58 51°15.014 2°47.817 9.9867 3.417766 29.615691 -2.871232
2007-04-11 07:03:03 51°15.015 2°47.789 9.9811 3.414453 29.584622 -2.871232
2007-04-11 07:03:08 51°15.017 2°47.761 9.9791 3.414453 29.584622 -2.871232
2007-04-11 07:03:13 51°15.018 2°47.733 9.9672 3.41642 29.608077 -2.871232
2007-04-11 07:03:18 51°15.019 2°47.706 9.9664 3.417249 29.621355 -2.871232
2007-04-11 07:03:23 51°15.02 2°47.678 9.9573 3.417559 29.631944 -2.871232
2007-04-11 07:03:28 51°15.021 2°47.65 9.9456 3.415178 29.616656 -2.871232
2007-04-11 07:03:33 51°15.023 2°47.622 9.9404 3.416938 29.641189 -2.871232
2007-04-11 07:03:38 51°15.024 2°47.595 9.929 3.416524 29.641774 -2.871232
2007-04-11 07:03:43 51°15.025 2°47.567 9.9278 3.416524 29.641774 -2.871232
2007-04-11 07:03:48 51°15.026 2°47.539 9.9153 3.418699 29.67031 -2.871232
2007-04-11 07:03:53 51°15.027 2°47.511 9.9162 3.418077 29.669669 -2.871232
2007-04-11 07:03:58 51°15.027 2°47.483 9.9034 3.416317 29.65959 -2.871232
2007-04-11 07:04:03 51°15.029 2°47.454 9.891 3.418595 29.689911 -2.871232
2007-04-11 07:04:08 51°15.029 2°47.426 9.8887 3.421391 29.725239 -2.871232
2007-04-11 07:04:13 51°15.03 2°47.398 9.8846 3.421391 29.725239 -2.871232
2007-04-11 07:04:17 51°15.03 2°47.376 9.882 3.418389 29.703192 -2.871232
2007-04-11 07:04:22 51°15.031 2°47.347 9.8755 3.420667 29.732022 -2.871232
2007-04-11 07:04:28 51°15.032 2°47.313 9.8661 3.423773 29.767321 -2.871232
2007-04-11 07:04:32 51°15.032 2°47.29 9.8577 3.424809 29.785736 -2.871232
2007-04-11 07:04:37 51°15.033 2°47.262 9.8532 3.427397 29.819144 -2.871232
2007-04-11 07:04:42 51°15.034 2°47.233 9.8549 3.427397 29.819144 -2.871232
2007-04-11 07:04:48 51°15.035 2°47.199 9.8483 3.431125 29.862029 -2.871232
2007-04-11 07:04:53 51°15.036 2°47.17 9.847 3.433403 29.888634 -2.871232
2007-04-11 07:04:58 51°15.036 2°47.142 9.846 3.435474 29.914792 -2.871232
2007-04-11 07:05:02 51°15.038 2°47.119 9.8453 3.440548 29.968425 -2.871232
2007-04-11 07:05:08 51°15.039 2°47.085 9.8377 3.440548 29.968425 -2.871232
2007-04-11 07:05:13 51°15.04 2°47.056 9.8353 3.442619 29.994616 -2.871232
2007-04-11 07:05:18 51°15.041 2°47.028 9.8381 3.445829 30.030281 -2.871232
2007-04-11 07:05:23 51°15.042 2°46.999 9.836 3.444069 30.016363 -2.871232
2007-04-11 07:05:28 51°15.043 2°46.97 9.8413 3.448211 30.060278 -2.871232
2007-04-11 07:05:33 51°15.044 2°46.942 9.8306 3.445312 30.033796 -2.871232
2007-04-11 07:05:38 51°15.045 2°46.913 9.8376 3.450282 30.086511 -2.871232
2007-04-11 07:05:42 51°15.045 2°46.89 9.839 3.450282 30.086511 -2.871232
2007-04-11 07:05:48 51°15.047 2°46.856 9.8385 3.448832 30.07637 -2.871232
2007-04-11 07:05:52 51°15.047 2°46.833 9.8367 3.451318 30.101186 -2.871232
2007-04-11 07:05:58 51°15.048 2°46.798 9.8419 3.454528 30.132241 -2.871232
2007-04-11 07:06:03 51°15.049 2°46.77 9.8372 3.454321 30.133348 -2.871232
2007-04-11 07:06:08 51°15.05 2°46.741 9.8359 3.453907 30.12934 -2.871232
2007-04-11 07:06:12 51°15.051 2°46.718 9.8347 3.453907 30.12934 -2.871232
2007-04-11 07:06:18 51°15.052 2°46.683 9.8325 3.453389 30.123553 -2.871232
2007-04-11 07:06:23 51°15.053 2°46.655 9.835 3.454839 30.136802 -2.871232
2007-04-11 07:06:28 51°15.054 2°46.626 9.834 3.455356 30.141034 -2.871232
2007-04-11 07:06:33 51°15.055 2°46.597 9.835 3.454839 30.136802 -2.871232
2007-04-11 07:06:38 51°15.056 2°46.569 9.8315 3.457842 30.166639 -2.871232
2007-04-11 07:06:42 51°15.057 2°46.545 9.833 3.457842 30.166639 -2.871232
2007-04-11 07:06:48 51°15.058 2°46.511 9.8368 3.45546 30.145148 -2.871232
2007-04-11 07:06:53 51°15.059 2°46.482 9.835 3.452043 30.11286 -2.871232
2007-04-11 07:06:58 51°15.06 2°46.453 9.8363 3.458359 30.174764 -2.871232
2007-04-11 07:07:02 51°15.06 2°46.43 9.837 3.456288 30.153942 -2.871232
2007-04-11 07:07:08 51°15.062 2°46.396 9.8363 3.455978 30.151714 -2.871232
2007-04-11 07:07:13 51°15.063 2°46.367 9.8358 3.455978 30.151714 -2.871232
2007-04-11 07:07:18 51°15.064 2°46.338 9.8373 3.453907 30.131673 -2.871232
2007-04-11 07:07:22 51°15.065 2°46.315 9.8393 3.46043 30.19403 -2.871232
2007-04-11 07:07:28 51°15.066 2°46.281 9.8365 3.460223 30.192025 -2.871232
2007-04-11 07:07:33 51°15.067 2°46.252 9.8363 3.45691 30.159955 -2.871232
2007-04-11 07:07:38 51°15.068 2°46.224 9.838 3.457945 30.169976 -2.871232
2007-04-11 07:07:42 51°15.069 2°46.201 9.8398 3.457945 30.169976 -2.871232
2007-04-11 07:07:48 51°15.07 2°46.167 9.8401 3.448833 30.081804 -2.871232
2007-04-11 07:07:53 51°15.071 2°46.138 9.8364 3.453492 30.126887 -2.871232
2007-04-11 07:07:58 51°15.072 2°46.109 9.8412 3.453389 30.125108 -2.871232
2007-04-11 07:08:03 51°15.073 2°46.081 9.8394 3.445415 30.047973 -2.871232
2007-04-11 07:08:08 51°15.073 2°46.052 9.8362 3.452767 30.118319 -2.871232
2007-04-11 07:08:13 51°15.075 2°46.024 9.8386 3.452767 30.118319 -2.871232
2007-04-11 07:08:18 51°15.075 2°45.996 9.8382 3.449247 30.084258 -2.871232
2007-04-11 07:08:23 51°15.077 2°45.967 9.8385 3.447486 30.067229 -2.871232
2007-04-11 07:08:28 51°15.078 2°45.939 9.8338 3.451628 30.107299 -2.871232
2007-04-11 07:08:33 51°15.079 2°45.91 9.8293 3.454839 30.138358 -2.871232
2007-04-11 07:08:37 51°15.08 2°45.888 9.8333 3.45401 30.130342 -2.871232
2007-04-11 07:08:42 51°15.081 2°45.859 9.8322 3.45401 30.130342 -2.871232
2007-04-11 07:08:48 51°15.082 2°45.825 9.8289 3.454839 30.138358 -2.871232
2007-04-11 07:08:52 51°15.083 2°45.802 9.8301 3.456288 30.152386 -2.871232
2007-04-11 07:08:57 51°15.084 2°45.774 9.8324 3.453803 30.129116 -2.871232
2007-04-11 07:09:03 51°15.085 2°45.74 9.8309 3.451732 30.110632 -2.871232
2007-04-11 07:09:08 51°15.087 2°45.712 9.8319 3.475653 30.342984 -2.871232
2007-04-11 07:09:13 51°15.088 2°45.683 9.8314 3.475653 30.342984 -2.871232
2007-04-11 07:09:17 51°15.088 2°45.661 9.8318 3.475342 30.341541 -2.871232
2007-04-11 07:09:22 51°15.09 2°45.632 9.827 3.475032 30.339315 -2.871232
2007-04-11 07:09:28 51°15.091 2°45.598 9.8249 3.474618 30.335303 -2.871232
2007-04-11 07:09:33 51°15.092 2°45.57 9.8242 3.474307 30.332294 -2.871232
2007-04-11 07:09:38 51°15.093 2°45.542 9.8261 3.473789 30.327279 -2.871232
2007-04-11 07:09:42 51°15.094 2°45.519 9.8227 3.473789 30.327279 -2.871232
2007-04-11 07:09:48 51°15.096 2°45.486 9.8252 3.473582 30.326055 -2.871232
2007-04-11 07:09:53 51°15.097 2°45.458 9.8215 3.473271 30.323829 -2.871232
2007-04-11 07:09:58 51°15.098 2°45.429 9.8233 3.472236 30.314581 -2.871232
2007-04-11 07:10:03 51°15.099 2°45.401 9.8247 3.473271 30.326177 -2.871232
2007-04-11 07:10:08 51°15.101 2°45.373 9.8262 3.473271 30.32696 -2.871232
2007-04-11 07:10:13 51°15.102 2°45.345 9.8279 3.473271 30.32696 -2.871232
2007-04-11 07:10:18 51°15.103 2°45.317 9.8262 3.473582 30.330753 -2.871232
2007-04-11 07:10:22 51°15.104 2°45.294 9.8224 3.473996 30.335549 -2.871232
2007-04-11 07:10:28 51°15.106 2°45.261 9.8251 3.473893 30.335329 -2.871232
2007-04-11 07:10:32 51°15.107 2°45.238 9.8264 3.473686 30.332539 -2.871232
2007-04-11 07:10:38 51°15.108 2°45.204 9.8292 3.473271 30.328526 -2.871232
2007-04-11 07:10:43 51°15.109 2°45.176 9.8271 3.473271 30.328526 -2.871232
2007-04-11 07:10:48 51°15.11 2°45.148 9.8284 3.472961 30.324734 -2.871232
2007-04-11 07:10:53 51°15.111 2°45.12 9.8264 3.472754 30.32351 -2.871232
2007-04-11 07:10:58 51°15.113 2°45.092 9.8262 3.472443 30.320501 -2.871232
2007-04-11 07:11:03 51°15.113 2°45.064 9.8309 3.472339 30.319498 -2.871232
2007-04-11 07:11:08 51°15.115 2°45.036 9.8274 3.472236 30.317712 -2.871232
2007-04-11 07:11:13 51°15.116 2°45.008 9.8261 3.472236 30.317712 -2.871232
2007-04-11 07:11:18 51°15.117 2°44.98 9.8251 3.472339 30.317932 -2.871232
2007-04-11 07:11:23 51°15.119 2°44.952 9.8249 3.472546 30.319938 -2.871232
2007-04-11 07:11:28 51°15.12 2°44.924 9.8264 3.47265 30.320941 -2.871232
2007-04-11 07:11:33 51°15.121 2°44.895 9.8246 3.47265 30.320941 -2.871232
2007-04-11 07:11:38 51°15.122 2°44.867 9.8249 3.472754 30.321945 -2.871232
2007-04-11 07:11:42 51°15.123 2°44.844 9.823 3.472754 30.321945 -2.871232
2007-04-11 07:11:48 51°15.124 2°44.811 9.8215 3.472857 30.323731 -2.871232
2007-04-11 07:11:53 51°15.125 2°44.782 9.823 3.472961 30.325517 -2.871232
2007-04-11 07:11:58 51°15.126 2°44.754 9.8206 3.473064 30.32652 -2.871232
2007-04-11 07:12:03 51°15.128 2°44.726 9.8214 3.473271 30.329309 -2.871232
2007-04-11 07:12:08 51°15.129 2°44.698 9.8226 3.473375 30.330313 -2.871232
2007-04-11 07:12:12 51°15.13 2°44.675 9.8211 3.473375 30.330313 -2.871232
2007-04-11 07:12:18 51°15.132 2°44.641 9.8215 3.473686 30.333323 -2.871232
2007-04-11 07:12:22 51°15.133 2°44.619 9.8184 3.473996 30.337116 -2.871232
2007-04-11 07:12:28 51°15.134 2°44.585 9.8199 3.474411 30.341912 -2.871232
2007-04-11 07:12:33 51°15.136 2°44.557 9.8244 3.475032 30.347933 -2.871232
2007-04-11 07:12:38 51°15.137 2°44.529 9.8287 3.475239 30.350723 -2.871232
2007-04-11 07:12:42 51°15.138 2°44.507 9.8319 3.475239 30.350723 -2.871232
2007-04-11 07:12:48 51°15.139 2°44.474 9.837 3.475343 30.35251 -2.871232
2007-04-11 07:12:53 51°15.14 2°44.445 9.84 3.475032 30.350284 -2.871232
2007-04-11 07:12:58 51°15.142 2°44.418 9.8437 3.474618 30.347053 -2.871232
2007-04-11 07:13:03 51°15.143 2°44.39 9.8431 3.473479 30.334449 -2.871232
2007-04-11 07:13:08 51°15.145 2°44.362 9.8453 3.472236 30.319277 -2.871232
2007-04-11 07:13:13 51°15.146 2°44.334 9.8456 3.472236 30.319277 -2.871232
2007-04-11 07:13:18 51°15.147 2°44.306 9.8452 3.470993 30.304109 -2.871232
2007-04-11 07:13:23 51°15.148 2°44.278 9.8471 3.46975 30.288946 -2.871232
2007-04-11 07:13:28 51°15.15 2°44.25 9.8473 3.468922 30.277015 -2.871232
2007-04-11 07:13:33 51°15.151 2°44.222 9.8468 3.46799 30.266429 -2.871232
2007-04-11 07:13:38 51°15.152 2°44.194 9.8465 3.467369 30.25807 -2.871232
2007-04-11 07:13:42 51°15.153 2°44.172 9.847 3.467369 30.25807 -2.871232
2007-04-11 07:13:48 51°15.155 2°44.138 9.8463 3.466747 30.250494 -2.871232
2007-04-11 07:13:53 51°15.156 2°44.11 9.8416 3.466022 30.242697 -2.871232
2007-04-11 07:13:58 51°15.158 2°44.082 9.842 3.465712 30.238909 -2.871232
2007-04-11 07:14:02 51°15.159 2°44.06 9.8395 3.465504 30.236905 -2.871232
2007-04-11 07:14:08 51°15.16 2°44.026 9.8385 3.465297 30.23412 -2.871232
2007-04-11 07:14:13 51°15.161 2°43.998 9.8388 3.465297 30.23412 -2.871232
2007-04-11 07:14:18 51°15.163 2°43.97 9.8369 3.465401 30.235122 -2.871232
2007-04-11 07:14:23 51°15.164 2°43.943 9.8374 3.465919 30.241694 -2.871232
2007-04-11 07:14:28 51°15.165 2°43.915 9.8368 3.46654 30.248489 -2.871232
2007-04-11 07:14:33 51°15.167 2°43.887 9.8382 3.467058 30.254282 -2.871232
2007-04-11 07:14:38 51°15.168 2°43.859 9.8389 3.467369 30.258851 -2.871232
2007-04-11 07:14:42 51°15.169 2°43.837 9.8397 3.467369 30.258851 -2.871232
2007-04-11 07:14:48 51°15.17 2°43.804 9.8362 3.467369 30.260413 -2.871232
2007-04-11 07:14:52 51°15.171 2°43.781 9.8358 3.467161 30.259189 -2.871232
2007-04-11 07:14:58 51°15.173 2°43.748 9.833 3.466747 30.255959 -2.871232
2007-04-11 07:15:03 51°15.174 2°43.72 9.8325 3.466437 30.252171 -2.871232
2007-04-11 07:15:08 51°15.176 2°43.692 9.8305 3.466022 30.24816 -2.871232
2007-04-11 07:15:13 51°15.177 2°43.664 9.8295 3.466022 30.24816 -2.871232
2007-04-11 07:15:18 51°15.178 2°43.637 9.8243 3.465608 30.24415 -2.871232
2007-04-11 07:15:22 51°15.179 2°43.615 9.8185 3.46509 30.239918 -2.871232
2007-04-11 07:15:28 51°15.181 2°43.581 9.8138 3.464469 30.234683 -2.871232
2007-04-11 07:15:33 51°15.182 2°43.554 9.8143 3.464055 30.232234 -2.871232
2007-04-11 07:15:38 51°15.183 2°43.526 9.8104 3.464055 30.232234 -2.871232
2007-04-11 07:15:42 51°15.183 2°43.503 9.8045 3.463641 30.230565 -2.871232
2007-04-11 07:15:48 51°15.184 2°43.47 9.8065 3.463537 30.231123 -2.871232
2007-04-11 07:15:53 51°15.186 2°43.442 9.7959 3.463537 30.234245 -2.871232
2007-04-11 07:15:58 51°15.186 2°43.414 9.7883 3.463537 30.238929 -2.871232
2007-04-11 07:16:02 51°15.188 2°43.392 9.7796 3.463744 30.244059 -2.871232
2007-04-11 07:16:08 51°15.189 2°43.358 9.7787 3.464262 30.251418 -2.871232
2007-04-11 07:16:13 51°15.191 2°43.33 9.777 3.464262 30.251418 -2.871232
2007-04-11 07:16:18 51°15.192 2°43.302 9.7701 3.465194 30.263573 -2.871232
2007-04-11 07:16:22 51°15.192 2°43.28 9.7686 3.466333 30.27852 -2.871232
2007-04-11 07:16:28 51°15.194 2°43.247 9.7644 3.467887 30.299052 -2.871232
2007-04-11 07:16:33 51°15.195 2°43.219 9.7586 3.469337 30.319372 -2.871232
2007-04-11 07:16:38 51°15.197 2°43.191 9.7548 3.470165 30.332892 -2.871232
2007-04-11 07:16:42 51°15.198 2°43.169 9.7577 3.470165 30.332892 -2.871232
2007-04-11 07:16:48 51°15.199 2°43.135 9.7569 3.470683 30.341834 -2.871232
2007-04-11 07:16:53 51°15.2 2°43.107 9.756 3.470787 30.347546 -2.871232
2007-04-11 07:16:58 51°15.202 2°43.079 9.7534 3.470683 30.350466 -2.871232
2007-04-11 07:17:03 51°15.203 2°43.051 9.7507 3.470787 30.356181 -2.871232
2007-04-11 07:17:08 51°15.204 2°43.024 9.7462 3.470787 30.359322 -2.871232
2007-04-11 07:17:13 51°15.206 2°42.996 9.7408 3.470787 30.359322 -2.871232
2007-04-11 07:17:18 51°15.207 2°42.968 9.7383 3.470683 30.360673 -2.871232
2007-04-11 07:17:23 51°15.208 2°42.94 9.7372 3.470787 30.362463 -2.871232
2007-04-11 07:17:28 51°15.21 2°42.912 9.7334 3.47089 30.364254 -2.871232
2007-04-11 07:17:33 51°15.211 2°42.884 9.7314 3.47089 30.366611 -2.871232
2007-04-11 07:17:37 51°15.212 2°42.862 9.7315 3.47089 30.366611 -2.871232
2007-04-11 07:17:43 51°15.213 2°42.828 9.7298 3.47089 30.37054 -2.871232
2007-04-11 07:17:48 51°15.215 2°42.8 9.7305 3.470891 30.373684 -2.871232
2007-04-11 07:17:53 51°15.216 2°42.772 9.7234 3.470787 30.376609 -2.871232
2007-04-11 07:17:58 51°15.217 2°42.744 9.7261 3.470476 30.376738 -2.871232
2007-04-11 07:18:03 51°15.218 2°42.716 9.7212 3.469959 30.374068 -2.871232
2007-04-11 07:18:08 51°15.219 2°42.688 9.7202 3.469544 30.372405 -2.871232
2007-04-11 07:18:13 51°15.221 2°42.66 9.7173 3.469544 30.372405 -2.871232
2007-04-11 07:18:18 51°15.221 2°42.632 9.7168 3.469337 30.37118 -2.871232
2007-04-11 07:18:22 51°15.223 2°42.61 9.7215 3.469648 30.374983 -2.871232
2007-04-11 07:18:28 51°15.224 2°42.576 9.7127 3.470166 30.381586 -2.871232
2007-04-11 07:18:33 51°15.225 2°42.548 9.7093 3.470787 30.390769 -2.871232
2007-04-11 07:18:38 51°15.226 2°42.519 9.714 3.471512 30.400173 -2.871232
2007-04-11 07:18:42 51°15.227 2°42.497 9.7159 3.471512 30.400173 -2.871232
2007-04-11 07:18:48 51°15.228 2°42.463 9.7107 3.472237 30.409578 -2.871232
2007-04-11 07:18:53 51°15.23 2°42.435 9.7119 3.473066 30.418416 -2.871232
2007-04-11 07:18:58 51°15.231 2°42.407 9.7124 3.473998 30.428261 -2.871232
2007-04-11 07:19:02 51°15.232 2°42.385 9.7094 3.475137 30.442485 -2.871232
2007-04-11 07:19:08 51°15.233 2°42.351 9.709 3.475137 30.442485 -2.871232
2007-04-11 07:19:13 51°15.234 2°42.323 9.7105 3.475965 30.451327 -2.871232
2007-04-11 07:19:18 51°15.235 2°42.295 9.7159 3.477001 30.462182 -2.871232
2007-04-11 07:19:23 51°15.236 2°42.267 9.7238 3.47814 30.474834 -2.871232
2007-04-11 07:19:28 51°15.237 2°42.239 9.7311 3.478968 30.483678 -2.871232
2007-04-11 07:19:33 51°15.238 2°42.211 9.7397 3.4799 30.49274 -2.871232
2007-04-11 07:19:38 51°15.238 2°42.183 9.7471 3.480729 30.501586 -2.871232
2007-04-11 07:19:43 51°15.239 2°42.154 9.7502 3.480729 30.501586 -2.871232
2007-04-11 07:19:48 51°15.24 2°42.126 9.7521 3.481557 30.508851 -2.871232
2007-04-11 07:19:53 51°15.241 2°42.098 9.7551 3.482489 30.515541 -2.871232
2007-04-11 07:19:58 51°15.242 2°42.069 9.7494 3.483836 30.523096 -2.871232
2007-04-11 07:20:03 51°15.243 2°42.041 9.7479 3.485596 30.533885 -2.871232
2007-04-11 07:20:08 51°15.244 2°42.012 9.7358 3.487667 30.5469 -2.871232
2007-04-11 07:20:13 51°15.245 2°41.984 9.7382 3.487667 30.5469 -2.871232
2007-04-11 07:20:18 51°15.246 2°41.956 9.7337 3.489945 30.563505 -2.871232
2007-04-11 07:20:22 51°15.246 2°41.933 9.7343 3.492016 30.579677 -2.871232
2007-04-11 07:20:28 51°15.248 2°41.899 9.7283 3.49357 30.593189 -2.871232
2007-04-11 07:20:33 51°15.248 2°41.871 9.7273 3.49533 30.611092 -2.871232
2007-04-11 07:20:38 51°15.25 2°41.842 9.7262 3.496677 30.628141 -2.871232
2007-04-11 07:20:42 51°15.25 2°41.82 9.7213 3.496677 30.628141 -2.871232
2007-04-11 07:20:48 51°15.252 2°41.785 9.7224 3.497505 30.638574 -2.871232
2007-04-11 07:20:53 51°15.252 2°41.757 9.7196 3.498334 30.649803 -2.871232
2007-04-11 07:20:58 51°15.253 2°41.728 9.7194 3.499059 30.659233 -2.871232
2007-04-11 07:21:03 51°15.255 2°41.7 9.7207 3.499577 30.666651 -2.871232
2007-04-11 07:21:08 51°15.255 2°41.671 9.7195 3.499991 30.673857 -2.871232
2007-04-11 07:21:13 51°15.256 2°41.643 9.7178 3.499991 30.673857 -2.871232
2007-04-11 07:21:18 51°15.257 2°41.614 9.7171 3.500405 30.68027 -2.871232
2007-04-11 07:21:22 51°15.258 2°41.592 9.7189 3.500612 30.683875 -2.871232
2007-04-11 07:21:28 51°15.259 2°41.557 9.7145 3.50082 30.688275 -2.871232
2007-04-11 07:21:33 51°15.26 2°41.529 9.7048 3.501027 30.69029 -2.871232
2007-04-11 07:21:38 51°15.261 2°41.5 9.7043 3.50113 30.692092 -2.871232
2007-04-11 07:21:42 51°15.262 2°41.477 9.7061 3.50113 30.692092 -2.871232
2007-04-11 07:21:48 51°15.263 2°41.443 9.7095 3.50113 30.692887 -2.871232
2007-04-11 07:21:53 51°15.264 2°41.415 9.7114 3.50113 30.693683 -2.871232
2007-04-11 07:21:58 51°15.265 2°41.387 9.7168 3.501337 30.696493 -2.871232
2007-04-11 07:22:03 51°15.266 2°41.358 9.7179 3.501545 30.70169 -2.871232
2007-04-11 07:22:08 51°15.267 2°41.33 9.7219 3.501648 30.705881 -2.871232
2007-04-11 07:22:13 51°15.267 2°41.301 9.7227 3.501648 30.705881 -2.871232
2007-04-11 07:22:18 51°15.269 2°41.273 9.727 3.501648 30.706676 -2.871232
2007-04-11 07:22:22 51°15.269 2°41.25 9.7279 3.501338 30.703652 -2.871232
2007-04-11 07:22:28 51°15.27 2°41.216 9.7323 3.50113 30.700045 -2.871232
2007-04-11 07:22:33 51°15.271 2°41.188 9.7329 3.500923 30.695643 -2.871232
2007-04-11 07:22:38 51°15.272 2°41.16 9.7345 3.500923 30.695643 -2.871232
2007-04-11 07:22:43 51°15.273 2°41.131 9.737 3.50082 30.691455 -2.871232
2007-04-11 07:22:48 51°15.274 2°41.103 9.7388 3.50082 30.68907 -2.871232
2007-04-11 07:22:53 51°15.275 2°41.074 9.7387 3.500716 30.684882 -2.871232
2007-04-11 07:22:58 51°15.276 2°41.046 9.7406 3.500716 30.682498 -2.871232
2007-04-11 07:23:02 51°15.277 2°41.023 9.742 3.500716 30.680909 -2.871232
2007-04-11 07:23:08 51°15.279 2°40.989 9.7456 3.500612 30.677518 -2.871232
2007-04-11 07:23:13 51°15.279 2°40.96 9.7468 3.500612 30.677518 -2.871232
2007-04-11 07:23:18 51°15.281 2°40.932 9.7487 3.500716 30.676936 -2.871232
2007-04-11 07:23:23 51°15.282 2°40.903 9.7511 3.500716 30.674553 -2.871232
2007-04-11 07:23:27 51°15.282 2°40.881 9.7533 3.500819 30.674766 -2.871232
2007-04-11 07:23:33 51°15.284 2°40.847 9.7545 3.500819 30.672384 -2.871232
2007-04-11 07:23:38 51°15.285 2°40.818 9.7581 3.500716 30.668994 -2.871232
2007-04-11 07:23:43 51°15.286 2°40.789 9.7569 3.500716 30.668994 -2.871232
2007-04-11 07:23:48 51°15.287 2°40.761 9.757 3.500819 30.668414 -2.871232
2007-04-11 07:23:53 51°15.288 2°40.732 9.7592 3.500819 30.666826 -2.871232
2007-04-11 07:23:58 51°15.289 2°40.704 9.7598 3.500819 30.665238 -2.871232
2007-04-11 07:24:03 51°15.291 2°40.676 9.764 3.500819 30.662857 -2.871232
2007-04-11 07:24:08 51°15.292 2°40.647 9.7637 3.500819 30.66127 -2.871232
2007-04-11 07:24:13 51°15.293 2°40.619 9.7651 3.500819 30.66127 -2.871232
2007-04-11 07:24:18 51°15.294 2°40.59 9.7672 3.500716 30.658676 -2.871232
2007-04-11 07:24:22 51°15.295 2°40.567 9.7727 3.500819 30.658096 -2.871232
2007-04-11 07:24:28 51°15.297 2°40.533 9.7711 3.500819 30.65651 -2.871232
2007-04-11 07:24:33 51°15.298 2°40.504 9.7729 3.500819 30.655716 -2.871232
2007-04-11 07:24:38 51°15.299 2°40.476 9.7741 3.500819 30.65413 -2.871232
2007-04-11 07:24:43 51°15.3 2°40.447 9.7739 3.500819 30.65413 -2.871232
2007-04-11 07:24:48 51°15.302 2°40.419 9.777 3.500716 30.651537 -2.871232
2007-04-11 07:24:53 51°15.303 2°40.39 9.779 3.500715 30.649951 -2.871232
2007-04-11 07:24:58 51°15.304 2°40.361 9.7784 3.500819 30.648579 -2.871232
2007-04-11 07:25:02 51°15.305 2°40.338 9.7768 3.500819 30.646993 -2.871232
2007-04-11 07:25:08 51°15.306 2°40.304 9.7812 3.500819 30.645408 -2.871232
2007-04-11 07:25:13 51°15.308 2°40.275 9.7803 3.500819 30.645408 -2.871232
2007-04-11 07:25:18 51°15.309 2°40.247 9.7794 3.500923 30.645621 -2.871232
2007-04-11 07:25:22 51°15.31 2°40.224 9.782 3.500923 30.644036 -2.871232
2007-04-11 07:25:28 51°15.311 2°40.189 9.7796 3.501026 30.643457 -2.871232
2007-04-11 07:25:33 51°15.313 2°40.161 9.7791 3.500922 30.641659 -2.871232
2007-04-11 07:25:38 51°15.314 2°40.132 9.7801 3.500922 30.640866 -2.871232
2007-04-11 07:25:42 51°15.315 2°40.109 9.7813 3.500922 30.640866 -2.871232
2007-04-11 07:25:48 51°15.316 2°40.075 9.7798 3.500922 30.639281 -2.871232
2007-04-11 07:25:53 51°15.318 2°40.046 9.7802 3.500819 30.638275 -2.871232
2007-04-11 07:25:58 51°15.319 2°40.018 9.7818 3.500819 30.638275 -2.871232
2007-04-11 07:26:03 51°15.321 2°39.989 9.7799 3.500612 30.637056 -2.871232
2007-04-11 07:26:08 51°15.322 2°39.961 9.7835 3.500508 30.635258 -2.871232
2007-04-11 07:26:13 51°15.323 2°39.933 9.7875 3.500508 30.635258 -2.871232
2007-04-11 07:26:18 51°15.324 2°39.904 9.7907 3.500301 30.633246 -2.871232
2007-04-11 07:26:23 51°15.326 2°39.876 9.7921 3.499887 30.629222 -2.871232
2007-04-11 07:26:28 51°15.327 2°39.848 9.7959 3.499576 30.625413 -2.871232
2007-04-11 07:26:33 51°15.328 2°39.82 9.7964 3.499058 30.620384 -2.871232
2007-04-11 07:26:38 51°15.33 2°39.792 9.7965 3.498333 30.612552 -2.871232
2007-04-11 07:26:42 51°15.331 2°39.769 9.796 3.498333 30.612552 -2.871232
2007-04-11 07:26:48 51°15.332 2°39.735 9.7963 3.497816 30.60594 -2.871232
2007-04-11 07:26:53 51°15.334 2°39.708 9.7946 3.497091 30.596527 -2.871232
2007-04-11 07:26:57 51°15.335 2°39.685 9.7982 3.496469 30.587331 -2.871232
2007-04-11 07:27:03 51°15.336 2°39.651 9.795 3.495848 30.578927 -2.871232
2007-04-11 07:27:08 51°15.338 2°39.624 9.7917 3.495123 30.570309 -2.871232
2007-04-11 07:27:13 51°15.339 2°39.596 9.7924 3.495123 30.570309 -2.871232
2007-04-11 07:27:17 51°15.34 2°39.573 9.7908 3.494709 30.565498 -2.871232
2007-04-11 07:27:23 51°15.342 2°39.54 9.7919 3.494294 30.561478 -2.871232
2007-04-11 07:27:28 51°15.343 2°39.512 9.7947 3.49388 30.557457 -2.871232
2007-04-11 07:27:33 51°15.344 2°39.484 9.7895 3.493776 30.555662 -2.871232
2007-04-11 07:27:37 51°15.346 2°39.462 9.7893 3.493362 30.553221 -2.871232
2007-04-11 07:27:43 51°15.347 2°39.428 9.7894 3.493362 30.553221 -2.871232
2007-04-11 07:27:48 51°15.348 2°39.4 9.7846 3.493259 30.553795 -2.871232
2007-04-11 07:27:53 51°15.35 2°39.372 9.78 3.492948 30.55078 -2.871232
2007-04-11 07:27:58 51°15.351 2°39.344 9.7796 3.492948 30.54999 -2.871232
2007-04-11 07:28:02 51°15.352 2°39.322 9.7791 3.492534 30.547549 -2.871232
2007-04-11 07:28:08 51°15.354 2°39.288 9.7756 3.492327 30.546328 -2.871232
2007-04-11 07:28:13 51°15.355 2°39.261 9.773 3.492327 30.546328 -2.871232
2007-04-11 07:28:18 51°15.357 2°39.233 9.7685 3.49212 30.545897 -2.871232
2007-04-11 07:28:23 51°15.358 2°39.205 9.7688 3.491912 30.546255 -2.871232
2007-04-11 07:28:28 51°15.359 2°39.177 9.7728 3.491602 30.545609 -2.871232
2007-04-11 07:28:33 51°15.36 2°39.149 9.7719 3.491291 30.544962 -2.871232
2007-04-11 07:28:38 51°15.361 2°39.121 9.7729 3.491084 30.54532 -2.871232
2007-04-11 07:28:43 51°15.362 2°39.093 9.774 3.491084 30.54532 -2.871232
2007-04-11 07:28:48 51°15.363 2°39.065 9.7726 3.490773 30.543884 -2.871232
2007-04-11 07:28:53 51°15.364 2°39.036 9.7733 3.49067 30.546038 -2.871232
2007-04-11 07:28:58 51°15.365 2°39.008 9.7747 3.490773 30.548624 -2.871232
2007-04-11 07:29:03 51°15.366 2°38.98 9.7715 3.490981 30.549845 -2.871232
2007-04-11 07:29:08 51°15.367 2°38.952 9.7679 3.490981 30.549055 -2.871232
2007-04-11 07:29:13 51°15.369 2°38.924 9.7661 3.490981 30.549055 -2.871232
2007-04-11 07:29:18 51°15.37 2°38.895 9.7608 3.490981 30.549055 -2.871232
2007-04-11 07:29:23 51°15.371 2°38.867 9.7587 3.491395 30.553078 -2.871232
2007-04-11 07:29:28 51°15.372 2°38.839 9.76 3.492327 30.561339 -2.871232
2007-04-11 07:29:33 51°15.372 2°38.811 9.7583 3.493777 30.57621 -2.871232
2007-04-11 07:29:38 51°15.373 2°38.782 9.7562 3.495434 30.593886 -2.871232
2007-04-11 07:29:43 51°15.373 2°38.754 9.7516 3.495434 30.593886 -2.871232
2007-04-11 07:29:48 51°15.375 2°38.725 9.75 3.497609 30.618971 -2.871232
2007-04-11 07:29:52 51°15.375 2°38.702 9.7428 3.499783 30.641687 -2.871232
2007-04-11 07:29:58 51°15.376 2°38.668 9.7375 3.501648 30.662182 -2.871232
2007-04-11 07:30:02 51°15.377 2°38.645 9.7346 3.502787 30.674047 -2.871232
2007-04-11 07:30:08 51°15.378 2°38.611 9.7283 3.50403 30.687714 -2.871232
2007-04-11 07:30:13 51°15.378 2°38.583 9.7272 3.50403 30.687714 -2.871232
2007-04-11 07:30:18 51°15.379 2°38.554 9.7257 3.505272 30.703767 -2.871232
2007-04-11 07:30:22 51°15.38 2°38.531 9.7184 3.506929 30.722263 -2.871232
2007-04-11 07:30:28 51°15.381 2°38.497 9.7162 3.508379 30.74034 -2.871232
2007-04-11 07:30:33 51°15.382 2°38.469 9.7168 3.509519 30.756196 -2.871232
2007-04-11 07:30:38 51°15.383 2°38.44 9.7149 3.510451 30.76845 -2.871232
2007-04-11 07:30:43 51°15.384 2°38.412 9.7152 3.510451 30.76845 -2.871232
2007-04-11 07:30:48 51°15.385 2°38.384 9.7174 3.511176 30.780285 -2.871232
2007-04-11 07:30:53 51°15.385 2°38.355 9.7146 3.511694 30.788513 -2.871232
2007-04-11 07:30:58 51°15.386 2°38.327 9.712 3.512004 30.795525 -2.871232
2007-04-11 07:31:03 51°15.387 2°38.299 9.716 3.512108 30.799725 -2.871232
2007-04-11 07:31:08 51°15.388 2°38.27 9.7161 3.512212 30.802329 -2.871232
2007-04-11 07:31:13 51°15.389 2°38.242 9.7164 3.512212 30.802329 -2.871232
2007-04-11 07:31:18 51°15.39 2°38.214 9.7189 3.512108 30.802119 -2.871232
2007-04-11 07:31:23 51°15.391 2°38.186 9.7184 3.512005 30.801111 -2.871232
2007-04-11 07:31:28 51°15.392 2°38.157 9.7176 3.511797 30.799892 -2.871232
2007-04-11 07:31:33 51°15.393 2°38.129 9.7144 3.511487 30.797665 -2.871232
2007-04-11 07:31:38 51°15.394 2°38.101 9.7108 3.511072 30.792835 -2.871232
2007-04-11 07:31:43 51°15.395 2°38.073 9.7134 3.511072 30.792835 -2.871232
2007-04-11 07:31:48 51°15.396 2°38.044 9.7122 3.510658 30.788802 -2.871232
2007-04-11 07:31:53 51°15.397 2°38.016 9.7109 3.510348 30.78498 -2.871232
2007-04-11 07:31:58 51°15.398 2°37.988 9.7106 3.51014 30.783761 -2.871232
2007-04-11 07:32:03 51°15.399 2°37.96 9.71 3.510244 30.785567 -2.871232
2007-04-11 07:32:08 51°15.4 2°37.932 9.714 3.510348 30.787373 -2.871232
2007-04-11 07:32:13 51°15.401 2°37.903 9.7135 3.510348 30.787373 -2.871232
2007-04-11 07:32:18 51°15.402 2°37.875 9.7161 3.510555 30.790985 -2.871232
2007-04-11 07:32:22 51°15.402 2°37.853 9.718 3.510658 30.791993 -2.871232
2007-04-11 07:32:28 51°15.403 2°37.819 9.7183 3.510762 30.794597 -2.871232
2007-04-11 07:32:33 51°15.404 2°37.79 9.7195 3.510865 30.796404 -2.871232
2007-04-11 07:32:38 51°15.405 2°37.762 9.7175 3.510865 30.795606 -2.871232
2007-04-11 07:32:43 51°15.406 2°37.734 9.7192 3.510865 30.795606 -2.871232
2007-04-11 07:32:48 51°15.407 2°37.705 9.7216 3.510865 30.79401 -2.871232
2007-04-11 07:32:53 51°15.408 2°37.677 9.7216 3.510762 30.791406 -2.871232
2007-04-11 07:32:58 51°15.409 2°37.649 9.7239 3.510555 30.788591 -2.871232
2007-04-11 07:33:03 51°15.41 2°37.62 9.7254 3.510348 30.78498 -2.871232
2007-04-11 07:33:08 51°15.411 2°37.592 9.7224 3.51014 30.782963 -2.871232
2007-04-11 07:33:13 51°15.412 2°37.563 9.7225 3.51014 30.782963 -2.871232
2007-04-11 07:33:18 51°15.413 2°37.535 9.7227 3.509933 30.780947 -2.871232
2007-04-11 07:33:23 51°15.414 2°37.507 9.7238 3.509623 30.777125 -2.871232
2007-04-11 07:33:28 51°15.416 2°37.478 9.7202 3.509415 30.773514 -2.871232
2007-04-11 07:33:33 51°15.416 2°37.45 9.7227 3.509105 30.769693 -2.871232
2007-04-11 07:33:38 51°15.417 2°37.422 9.7224 3.508898 30.767677 -2.871232
2007-04-11 07:33:43 51°15.418 2°37.393 9.723 3.508898 30.767677 -2.871232
2007-04-11 07:33:48 51°15.42 2°37.365 9.7219 3.508587 30.764653 -2.871232
2007-04-11 07:33:53 51°15.42 2°37.337 9.7252 3.508173 30.759825 -2.871232
2007-04-11 07:33:58 51°15.422 2°37.308 9.7249 3.507758 30.755793 -2.871232
2007-04-11 07:34:02 51°15.422 2°37.286 9.7283 3.507448 30.753566 -2.871232
2007-04-11 07:34:08 51°15.424 2°37.251 9.7307 3.507137 30.750542 -2.871232
2007-04-11 07:34:13 51°15.425 2°37.223 9.7355 3.507137 30.750542 -2.871232
2007-04-11 07:34:18 51°15.426 2°37.194 9.7387 3.506723 30.745714 -2.871232
2007-04-11 07:34:22 51°15.427 2°37.172 9.7431 3.506205 30.740675 -2.871232
2007-04-11 07:34:28 51°15.429 2°37.138 9.7412 3.505791 30.735848 -2.871232
2007-04-11 07:34:33 51°15.431 2°37.109 9.7457 3.505169 30.728209 -2.871232
2007-04-11 07:34:38 51°15.433 2°37.081 9.747 3.504444 30.719564 -2.871232
2007-04-11 07:34:43 51°15.435 2°37.052 9.7468 3.504444 30.719564 -2.871232
2007-04-11 07:34:48 51°15.438 2°37.024 9.744 3.503719 30.708534 -2.871232
2007-04-11 07:34:53 51°15.439 2°36.996 9.742 3.503201 30.699521 -2.871232
2007-04-11 07:34:58 51°15.441 2°36.967 9.7431 3.502684 30.692101 -2.871232
2007-04-11 07:35:03 51°15.443 2°36.939 9.7449 3.502373 30.685901 -2.871232
2007-04-11 07:35:08 51°15.445 2°36.911 9.7514 3.502166 30.681504 -2.871232
2007-04-11 07:35:13 51°15.447 2°36.883 9.7513 3.502166 30.681504 -2.871232
2007-04-11 07:35:18 51°15.449 2°36.855 9.7501 3.502062 30.680497 -2.871232
2007-04-11 07:35:22 51°15.451 2°36.833 9.7479 3.502062 30.680497 -2.871232
2007-04-11 07:35:28 51°15.453 2°36.799 9.7487 3.502062 30.681291 -2.871232
2007-04-11 07:35:33 51°15.455 2°36.77 9.7491 3.502062 30.680497 -2.871232
2007-04-11 07:35:38 51°15.456 2°36.742 9.7492 3.502062 30.679703 -2.871232
2007-04-11 07:35:43 51°15.458 2°36.713 9.7507 3.502062 30.679703 -2.871232
2007-04-11 07:35:48 51°15.46 2°36.685 9.7521 3.501855 30.676101 -2.871232
2007-04-11 07:35:53 51°15.462 2°36.656 9.7556 3.501855 30.676101 -2.871232
2007-04-11 07:35:58 51°15.464 2°36.628 9.7562 3.501855 30.676101 -2.871232
2007-04-11 07:36:03 51°15.466 2°36.599 9.7561 3.501855 30.676101 -2.871232
2007-04-11 07:36:08 51°15.468 2°36.571 9.7576 3.501855 30.675307 -2.871232
2007-04-11 07:36:13 51°15.469 2°36.543 9.7588 3.501855 30.675307 -2.871232
2007-04-11 07:36:18 51°15.471 2°36.514 9.7553 3.501751 30.673506 -2.871232
2007-04-11 07:36:23 51°15.473 2°36.486 9.7595 3.501751 30.671918 -2.871232
2007-04-11 07:36:28 51°15.475 2°36.458 9.7508 3.501855 30.671337 -2.871232
2007-04-11 07:36:33 51°15.477 2°36.429 9.7553 3.502166 30.673563 -2.871232
2007-04-11 07:36:38 51°15.479 2°36.401 9.7524 3.502476 30.674996 -2.871232
2007-04-11 07:36:42 51°15.48 2°36.378 9.7498 3.502476 30.674996 -2.871232
2007-04-11 07:36:48 51°15.482 2°36.344 9.7519 3.50289 30.678229 -2.871232
2007-04-11 07:36:53 51°15.484 2°36.316 9.7473 3.503512 30.685063 -2.871232
2007-04-11 07:36:58 51°15.486 2°36.288 9.7494 3.50403 30.690891 -2.871232
2007-04-11 07:37:03 51°15.489 2°36.259 9.7565 3.504547 30.696719 -2.871232
2007-04-11 07:37:08 51°15.491 2°36.231 9.7559 3.504962 30.700747 -2.871232
2007-04-11 07:37:13 51°15.493 2°36.202 9.7585 3.504962 30.700747 -2.871232
2007-04-11 07:37:18 51°15.495 2°36.174 9.7575 3.505272 30.705356 -2.871232
2007-04-11 07:37:23 51°15.497 2°36.146 9.7616 3.505583 30.709172 -2.871232
2007-04-11 07:37:28 51°15.5 2°36.117 9.7593 3.505687 30.710974 -2.871232
2007-04-11 07:37:32 51°15.501 2°36.095 9.7605 3.505687 30.709384 -2.871232
2007-04-11 07:37:38 51°15.503 2°36.06 9.7549 3.50548 30.706575 -2.871232
2007-04-11 07:37:43 51°15.505 2°36.032 9.7536 3.50548 30.706575 -2.871232
2007-04-11 07:37:48 51°15.507 2°36.003 9.7507 3.505272 30.702972 -2.871232
2007-04-11 07:37:53 51°15.509 2°35.975 9.7492 3.505169 30.700377 -2.871232
2007-04-11 07:37:58 51°15.511 2°35.947 9.7445 3.505169 30.698788 -2.871232
2007-04-11 07:38:03 51°15.513 2°35.918 9.7425 3.505169 30.698788 -2.871232
2007-04-11 07:38:08 51°15.516 2°35.89 9.7414 3.505272 30.701383 -2.871232
2007-04-11 07:38:13 51°15.518 2°35.861 9.7327 3.505272 30.701383 -2.871232
2007-04-11 07:38:18 51°15.52 2°35.832 9.7328 3.505376 30.704774 -2.871232
2007-04-11 07:38:23 51°15.522 2°35.804 9.7282 3.505894 30.711398 -2.871232
2007-04-11 07:38:28 51°15.524 2°35.775 9.7257 3.506619 30.719242 -2.871232
2007-04-11 07:38:33 51°15.525 2°35.747 9.727 3.507447 30.730479 -2.871232
2007-04-11 07:38:38 51°15.528 2°35.718 9.7275 3.508379 30.742727 -2.871232
2007-04-11 07:38:42 51°15.529 2°35.695 9.7269 3.508379 30.742727 -2.871232
2007-04-11 07:38:48 51°15.531 2°35.66 9.7281 3.509104 30.753759 -2.871232
2007-04-11 07:38:53 51°15.533 2°35.632 9.7262 3.509519 30.761771 -2.871232
2007-04-11 07:38:58 51°15.535 2°35.603 9.729 3.509622 30.765966 -2.871232
2007-04-11 07:39:02 51°15.537 2°35.58 9.7211 3.509726 30.76777 -2.871232
2007-04-11 07:39:08 51°15.539 2°35.545 9.7179 3.50983 30.770372 -2.871232
2007-04-11 07:39:13 51°15.541 2°35.517 9.7155 3.50983 30.770372 -2.871232
2007-04-11 07:39:18 51°15.543 2°35.488 9.7166 3.50983 30.770372 -2.871232
2007-04-11 07:39:22 51°15.545 2°35.465 9.7154 3.509933 30.77138 -2.871232
2007-04-11 07:39:28 51°15.547 2°35.43 9.7118 3.510244 30.7752 -2.871232
2007-04-11 07:39:33 51°15.55 2°35.401 9.709 3.510658 30.780826 -2.871232
2007-04-11 07:39:38 51°15.552 2°35.372 9.7071 3.511072 30.786453 -2.871232
2007-04-11 07:39:43 51°15.555 2°35.343 9.706 3.511072 30.786453 -2.871232
2007-04-11 07:39:48 51°15.557 2°35.315 9.7087 3.511487 30.794474 -2.871232
2007-04-11 07:39:53 51°15.559 2°35.286 9.7104 3.511901 30.799304 -2.871232
2007-04-11 07:39:58 51°15.561 2°35.257 9.7222 3.512212 30.803925 -2.871232
2007-04-11 07:40:03 51°15.564 2°35.228 9.7243 3.512626 30.811152 -2.871232
2007-04-11 07:40:08 51°15.566 2°35.199 9.7302 3.51304 30.817581 -2.871232
2007-04-11 07:40:13 51°15.568 2°35.17 9.7383 3.51304 30.817581 -2.871232
2007-04-11 07:40:18 51°15.571 2°35.142 9.7428 3.51304 30.819977 -2.871232
2007-04-11 07:40:23 51°15.573 2°35.112 9.7487 3.512626 30.815144 -2.871232
2007-04-11 07:40:28 51°15.575 2°35.084 9.7499 3.512108 30.806908 -2.871232
2007-04-11 07:40:33 51°15.578 2°35.055 9.7477 3.51128 30.794053 -2.871232
2007-04-11 07:40:38 51°15.58 2°35.026 9.7436 3.510658 30.783219 -2.871232
2007-04-11 07:40:43 51°15.582 2°34.997 9.738 3.510658 30.783219 -2.871232
2007-04-11 07:40:48 51°15.585 2°34.968 9.7311 3.510037 30.771591 -2.871232
2007-04-11 07:40:53 51°15.587 2°34.94 9.7302 3.509622 30.761186 -2.871232
2007-04-11 07:40:58 51°15.589 2°34.911 9.7282 3.509519 30.7554 -2.871232
2007-04-11 07:41:03 51°15.591 2°34.882 9.7287 3.509519 30.753011 -2.871232
2007-04-11 07:41:08 51°15.593 2°34.854 9.7277 3.509933 30.758633 -2.871232
2007-04-11 07:41:13 51°15.595 2°34.825 9.7257 3.509933 30.758633 -2.871232
2007-04-11 07:41:18 51°15.597 2°34.796 9.7257 3.510451 30.76606 -2.871232
2007-04-11 07:41:22 51°15.599 2°34.773 9.7276 3.510865 30.774074 -2.871232
2007-04-11 07:41:28 51°15.602 2°34.739 9.729 3.511176 30.780285 -2.871232
2007-04-11 07:41:33 51°15.604 2°34.71 9.7253 3.511383 30.783895 -2.871232
2007-04-11 07:41:38 51°15.607 2°34.681 9.7285 3.51159 30.787506 -2.871232
2007-04-11 07:41:42 51°15.609 2°34.658 9.7275 3.51159 30.787506 -2.871232
2007-04-11 07:41:48 51°15.612 2°34.623 9.7217 3.511694 30.789311 -2.871232
2007-04-11 07:41:53 51°15.614 2°34.594 9.7262 3.511797 30.790319 -2.871232
2007-04-11 07:41:58 51°15.617 2°34.566 9.7222 3.512004 30.792335 -2.871232
2007-04-11 07:42:02 51°15.619 2°34.542 9.7213 3.512212 30.795148 -2.871232
2007-04-11 07:42:08 51°15.622 2°34.508 9.7187 3.512522 30.798172 -2.871232
2007-04-11 07:42:13 51°15.625 2°34.479 9.7207 3.512522 30.798172 -2.871232
2007-04-11 07:42:18 51°15.627 2°34.45 9.7287 3.512729 30.800188 -2.871232
2007-04-11 07:42:23 51°15.63 2°34.422 9.7332 3.512833 30.801994 -2.871232
2007-04-11 07:42:28 51°15.632 2°34.393 9.7395 3.51304 30.804808 -2.871232
2007-04-11 07:42:33 51°15.634 2°34.364 9.7499 3.513247 30.807622 -2.871232
2007-04-11 07:42:38 51°15.637 2°34.335 9.7519 3.513351 30.809428 -2.871232
2007-04-11 07:42:43 51°15.639 2°34.307 9.7612 3.513351 30.809428 -2.871232
2007-04-11 07:42:48 51°15.642 2°34.278 9.761 3.513247 30.809218 -2.871232
2007-04-11 07:42:53 51°15.645 2°34.249 9.7627 3.512729 30.800986 -2.871232
2007-04-11 07:42:58 51°15.647 2°34.22 9.7674 3.512212 30.79116 -2.871232
2007-04-11 07:43:02 51°15.649 2°34.197 9.7676 3.511797 30.781549 -2.871232
2007-04-11 07:43:08 51°15.652 2°34.163 9.7693 3.511383 30.771941 -2.871232
2007-04-11 07:43:13 51°15.655 2°34.134 9.771 3.511383 30.771941 -2.871232
2007-04-11 07:43:18 51°15.657 2°34.106 9.7713 3.511176 30.763554 -2.871232
2007-04-11 07:43:22 51°15.66 2°34.083 9.7678 3.510968 30.756764 -2.871232
2007-04-11 07:43:28 51°15.662 2°34.048 9.7694 3.511072 30.754587 -2.871232
2007-04-11 07:43:33 51°15.665 2°34.02 9.766 3.511175 30.752411 -2.871232
2007-04-11 07:43:38 51°15.667 2°33.991 9.7608 3.511383 30.752833 -2.871232
2007-04-11 07:43:42 51°15.669 2°33.968 9.7635 3.511383 30.752833 -2.871232
2007-04-11 07:43:48 51°15.672 2°33.933 9.7614 3.511693 30.753467 -2.871232
2007-04-11 07:43:53 51°15.674 2°33.905 9.7575 3.512004 30.756487 -2.871232
2007-04-11 07:43:58 51°15.676 2°33.876 9.7603 3.512418 30.760514 -2.871232
2007-04-11 07:44:03 51°15.679 2°33.848 9.7605 3.512936 30.765548 -2.871232
2007-04-11 07:44:08 51°15.681 2°33.819 9.7664 3.513557 30.773181 -2.871232
2007-04-11 07:44:13 51°15.684 2°33.791 9.7641 3.513557 30.773181 -2.871232
2007-04-11 07:44:18 51°15.686 2°33.763 9.7635 3.514075 30.779808 -2.871232
2007-04-11 07:44:22 51°15.689 2°33.74 9.7595 3.51449 30.784632 -2.871232
2007-04-11 07:44:28 51°15.692 2°33.705 9.759 3.5148 30.790043 -2.871232
2007-04-11 07:44:33 51°15.695 2°33.677 9.7544 3.515007 30.792057 -2.871232
2007-04-11 07:44:38 51°15.697 2°33.649 9.7564 3.515215 30.793275 -2.871232
2007-04-11 07:44:43 51°15.699 2°33.62 9.7473 3.515215 30.793275 -2.871232
2007-04-11 07:44:48 51°15.702 2°33.592 9.7453 3.515525 30.796296 -2.871232
2007-04-11 07:44:52 51°15.704 2°33.569 9.7436 3.516043 30.801332 -2.871232
2007-04-11 07:44:57 51°15.706 2°33.541 9.7397 3.516872 30.810186 -2.871232
2007-04-11 07:45:03 51°15.709 2°33.506 9.7279 3.518114 30.824665 -2.871232
2007-04-11 07:45:08 51°15.711 2°33.478 9.7256 3.518839 30.833313 -2.871232
2007-04-11 07:45:13 51°15.714 2°33.45 9.7229 3.518839 30.833313 -2.871232
2007-04-11 07:45:18 51°15.715 2°33.421 9.7184 3.519875 30.84658 -2.871232
2007-04-11 07:45:22 51°15.717 2°33.398 9.7143 3.521118 30.861866 -2.871232
2007-04-11 07:45:28 51°15.72 2°33.364 9.7117 3.522672 30.88098 -2.871232
2007-04-11 07:45:33 51°15.721 2°33.335 9.7072 3.525054 30.908164 -2.871232
2007-04-11 07:45:38 51°15.724 2°33.306 9.7011 3.527229 30.935745 -2.871232
2007-04-11 07:45:42 51°15.725 2°33.283 9.6956 3.527229 30.935745 -2.871232
2007-04-11 07:45:48 51°15.727 2°33.249 9.6913 3.528886 30.955088 -2.871232
2007-04-11 07:45:53 51°15.728 2°33.22 9.6867 3.530543 30.976042 -2.871232
2007-04-11 07:45:58 51°15.729 2°33.191 9.679 3.53189 30.993173 -2.871232
2007-04-11 07:46:03 51°15.731 2°33.161 9.6667 3.53334 31.011318 -2.871232
2007-04-11 07:46:08 51°15.732 2°33.132 9.6635 3.534375 31.024627 -2.871232
2007-04-11 07:46:13 51°15.733 2°33.102 9.6465 3.534375 31.024627 -2.871232
2007-04-11 07:46:18 51°15.734 2°33.073 9.634 3.536447 31.051255 -2.871232
2007-04-11 07:46:22 51°15.736 2°33.05 9.6187 3.538726 31.080722 -2.871232
2007-04-11 07:46:28 51°15.737 2°33.014 9.601 3.541004 31.107785 -2.871232
2007-04-11 07:46:33 51°15.74 2°32.985 9.5804 3.544008 31.144358 -2.871232
2007-04-11 07:46:38 51°15.741 2°32.955 9.5751 3.547012 31.180951 -2.871232
2007-04-11 07:46:43 51°15.743 2°32.926 9.561 3.547012 31.180951 -2.871232
2007-04-11 07:46:48 51°15.744 2°32.896 9.5424 3.550533 31.225055 -2.871232
2007-04-11 07:46:53 51°15.747 2°32.867 9.5388 3.555816 31.289648 -2.871232
2007-04-11 07:46:58 51°15.748 2°32.838 9.5258 3.560891 31.353097 -2.871232
2007-04-11 07:47:03 51°15.751 2°32.808 9.531 3.565967 31.420699 -2.871232
2007-04-11 07:47:08 51°15.752 2°32.779 9.5197 3.570317 31.478013 -2.871232
2007-04-11 07:47:13 51°15.754 2°32.75 9.5229 3.570317 31.478013 -2.871232
2007-04-11 07:47:18 51°15.756 2°32.721 9.5163 3.573943 31.529105 -2.871232
2007-04-11 07:47:23 51°15.759 2°32.691 9.5166 3.577672 31.580447 -2.871232
2007-04-11 07:47:28 51°15.761 2°32.662 9.5146 3.579329 31.6074 -2.871232
2007-04-11 07:47:33 51°15.762 2°32.633 9.5166 3.580469 31.625169 -2.871232
2007-04-11 07:47:38 51°15.764 2°32.604 9.514 3.581712 31.643963 -2.871232
2007-04-11 07:47:43 51°15.766 2°32.574 9.5179 3.581712 31.643963 -2.871232
2007-04-11 07:47:48 51°15.768 2°32.545 9.5219 3.582644 31.658064 -2.871232
2007-04-11 07:47:53 51°15.77 2°32.516 9.5222 3.583473 31.670327 -2.871232
2007-04-11 07:47:58 51°15.771 2°32.486 9.5224 3.584198 31.680751 -2.871232
2007-04-11 07:48:02 51°15.773 2°32.462 9.527 3.584302 31.684246 -2.871232
2007-04-11 07:48:08 51°15.774 2°32.427 9.5341 3.584509 31.686281 -2.871232
2007-04-11 07:48:13 51°15.776 2°32.398 9.5306 3.584509 31.686281 -2.871232
2007-04-11 07:48:18 51°15.777 2°32.369 9.5327 3.584509 31.685455 -2.871232
2007-04-11 07:48:23 51°15.778 2°32.339 9.5364 3.584612 31.685646 -2.871232
2007-04-11 07:48:28 51°15.779 2°32.31 9.5392 3.584716 31.685838 -2.871232